<?xml version="1.0" encoding="UTF-8" standalone="no" ?>
<gpx xmlns="http://www.topografix.com/GPX/1/1" xmlns:xsi="http://www.w3.org/2001/XMLSchema-instance" xsi:schemaLocation="http://www.topografix.com/GPX/1/1 http://www.topografix.com/GPX/1/1/gpx.xsd" version="1.1" creator="VisuGPX - https://www.visugpx.com">
  <metadata>
    <name>VS8 Sur les traces de Balincourt</name>
    <desc><![CDATA[ Site auteur :
[url]https://www.randovaldoise.com/[/url]
fiche :
[url]https://drive.google.com/file/d/1XnEs1GqjiG63S8suoIhpKKtoeIsAQdof/view?usp=sharing[/url]]]></desc>
  </metadata>
  <trk>
    <name><![CDATA[VS8 Sur les traces de Balincourt]]></name>
    <extensions>
      <line xmlns="http://www.topografix.com/GPX/gpx_style/0/2">
        <color>0000FF</color>
        <width>4</width>
      </line>
    </extensions>
    <trkseg>
      <trkpt lat="49.14846" lon="2.14652">
        <ele>102</ele>
        <time>2012-05-20T08:40:05Z</time>
      </trkpt>
      <trkpt lat="49.14844" lon="2.14639">
        <ele>102</ele>
        <time>2012-05-20T08:40:19Z</time>
      </trkpt>
      <trkpt lat="49.14839" lon="2.14629">
        <ele>100</ele>
        <time>2012-05-20T08:40:36Z</time>
      </trkpt>
      <trkpt lat="49.14839" lon="2.14628">
        <ele>95</ele>
        <time>2012-05-20T08:40:41Z</time>
      </trkpt>
      <trkpt lat="49.14838" lon="2.14627">
        <ele>93</ele>
        <time>2012-05-20T08:40:42Z</time>
      </trkpt>
      <trkpt lat="49.14838" lon="2.14623">
        <ele>91</ele>
        <time>2012-05-20T08:40:44Z</time>
      </trkpt>
      <trkpt lat="49.14837" lon="2.1462">
        <ele>91</ele>
        <time>2012-05-20T08:40:46Z</time>
      </trkpt>
      <trkpt lat="49.14836" lon="2.14616">
        <ele>87</ele>
        <time>2012-05-20T08:40:49Z</time>
      </trkpt>
      <trkpt lat="49.14835" lon="2.1461">
        <ele>86</ele>
        <time>2012-05-20T08:40:52Z</time>
      </trkpt>
      <trkpt lat="49.14835" lon="2.14606">
        <ele>83</ele>
        <time>2012-05-20T08:40:54Z</time>
      </trkpt>
      <trkpt lat="49.14834" lon="2.14601">
        <ele>80</ele>
        <time>2012-05-20T08:40:57Z</time>
      </trkpt>
      <trkpt lat="49.14834" lon="2.146">
        <ele>80</ele>
        <time>2012-05-20T08:40:58Z</time>
      </trkpt>
      <trkpt lat="49.14837" lon="2.14596">
        <ele>77</ele>
        <time>2012-05-20T08:41:04Z</time>
      </trkpt>
      <trkpt lat="49.14836" lon="2.14594">
        <ele>77</ele>
        <time>2012-05-20T08:41:05Z</time>
      </trkpt>
      <trkpt lat="49.14835" lon="2.1459">
        <ele>73</ele>
        <time>2012-05-20T08:41:09Z</time>
      </trkpt>
      <trkpt lat="49.14835" lon="2.14588">
        <ele>73</ele>
        <time>2012-05-20T08:41:10Z</time>
      </trkpt>
      <trkpt lat="49.14833" lon="2.1458">
        <ele>70</ele>
        <time>2012-05-20T08:41:16Z</time>
      </trkpt>
      <trkpt lat="49.14833" lon="2.14578">
        <ele>70</ele>
        <time>2012-05-20T08:41:17Z</time>
      </trkpt>
      <trkpt lat="49.14827" lon="2.14568">
        <ele>67</ele>
        <time>2012-05-20T08:41:23Z</time>
      </trkpt>
      <trkpt lat="49.14814" lon="2.14545">
        <ele>69</ele>
        <time>2012-05-20T08:41:35Z</time>
      </trkpt>
      <trkpt lat="49.14809" lon="2.14529">
        <ele>70</ele>
        <time>2012-05-20T08:41:50Z</time>
      </trkpt>
      <trkpt lat="49.14808" lon="2.14527">
        <ele>71</ele>
        <time>2012-05-20T08:41:54Z</time>
      </trkpt>
      <trkpt lat="49.14814" lon="2.14516">
        <ele>73</ele>
        <time>2012-05-20T08:42:07Z</time>
      </trkpt>
      <trkpt lat="49.14815" lon="2.14507">
        <ele>74</ele>
        <time>2012-05-20T08:42:12Z</time>
      </trkpt>
      <trkpt lat="49.14829" lon="2.14505">
        <ele>74</ele>
        <time>2012-05-20T08:42:25Z</time>
      </trkpt>
      <trkpt lat="49.14847" lon="2.14515">
        <ele>73</ele>
        <time>2012-05-20T08:42:40Z</time>
      </trkpt>
      <trkpt lat="49.14861" lon="2.14512">
        <ele>71</ele>
        <time>2012-05-20T08:42:54Z</time>
      </trkpt>
      <trkpt lat="49.14863" lon="2.14513">
        <ele>71</ele>
        <time>2012-05-20T08:42:55Z</time>
      </trkpt>
      <trkpt lat="49.14876" lon="2.14512">
        <ele>70</ele>
        <time>2012-05-20T08:43:08Z</time>
      </trkpt>
      <trkpt lat="49.14891" lon="2.14503">
        <ele>68</ele>
        <time>2012-05-20T08:43:22Z</time>
      </trkpt>
      <trkpt lat="49.14908" lon="2.14498">
        <ele>67</ele>
        <time>2012-05-20T08:43:35Z</time>
      </trkpt>
      <trkpt lat="49.14928" lon="2.14503">
        <ele>66</ele>
        <time>2012-05-20T08:43:51Z</time>
      </trkpt>
      <trkpt lat="49.14947" lon="2.14505">
        <ele>66</ele>
        <time>2012-05-20T08:44:06Z</time>
      </trkpt>
      <trkpt lat="49.14953" lon="2.14505">
        <ele>65</ele>
        <time>2012-05-20T08:44:13Z</time>
      </trkpt>
      <trkpt lat="49.1496" lon="2.14512">
        <ele>66</ele>
        <time>2012-05-20T08:44:20Z</time>
      </trkpt>
      <trkpt lat="49.14985" lon="2.14542">
        <ele>65</ele>
        <time>2012-05-20T08:44:45Z</time>
      </trkpt>
      <trkpt lat="49.15003" lon="2.14561">
        <ele>65</ele>
        <time>2012-05-20T08:45:07Z</time>
      </trkpt>
      <trkpt lat="49.15029" lon="2.14576">
        <ele>65</ele>
        <time>2012-05-20T08:45:32Z</time>
      </trkpt>
      <trkpt lat="49.15057" lon="2.14602">
        <ele>63</ele>
        <time>2012-05-20T08:45:52Z</time>
      </trkpt>
      <trkpt lat="49.15073" lon="2.14613">
        <ele>62</ele>
        <time>2012-05-20T08:46:03Z</time>
      </trkpt>
      <trkpt lat="49.1509" lon="2.1462">
        <ele>62</ele>
        <time>2012-05-20T08:46:18Z</time>
      </trkpt>
      <trkpt lat="49.1511" lon="2.14631">
        <ele>62</ele>
        <time>2012-05-20T08:46:34Z</time>
      </trkpt>
      <trkpt lat="49.15116" lon="2.14627">
        <ele>62</ele>
        <time>2012-05-20T08:46:39Z</time>
      </trkpt>
      <trkpt lat="49.1512" lon="2.14622">
        <ele>62</ele>
        <time>2012-05-20T08:46:44Z</time>
      </trkpt>
      <trkpt lat="49.15125" lon="2.14618">
        <ele>62</ele>
        <time>2012-05-20T08:46:48Z</time>
      </trkpt>
      <trkpt lat="49.15131" lon="2.1461">
        <ele>62</ele>
        <time>2012-05-20T08:46:54Z</time>
      </trkpt>
      <trkpt lat="49.15132" lon="2.14606">
        <ele>62</ele>
        <time>2012-05-20T08:46:57Z</time>
      </trkpt>
      <trkpt lat="49.15143" lon="2.14591">
        <ele>63</ele>
        <time>2012-05-20T08:47:10Z</time>
      </trkpt>
      <trkpt lat="49.15146" lon="2.14588">
        <ele>63</ele>
        <time>2012-05-20T08:47:14Z</time>
      </trkpt>
      <trkpt lat="49.15147" lon="2.14584">
        <ele>63</ele>
        <time>2012-05-20T08:47:17Z</time>
      </trkpt>
      <trkpt lat="49.15152" lon="2.14574">
        <ele>63</ele>
        <time>2012-05-20T08:47:24Z</time>
      </trkpt>
      <trkpt lat="49.15155" lon="2.14558">
        <ele>63</ele>
        <time>2012-05-20T08:47:32Z</time>
      </trkpt>
      <trkpt lat="49.15162" lon="2.14534">
        <ele>64</ele>
        <time>2012-05-20T08:47:45Z</time>
      </trkpt>
      <trkpt lat="49.15164" lon="2.14511">
        <ele>65</ele>
        <time>2012-05-20T08:47:59Z</time>
      </trkpt>
      <trkpt lat="49.1516" lon="2.14491">
        <ele>62</ele>
        <time>2012-05-20T08:48:12Z</time>
      </trkpt>
      <trkpt lat="49.15158" lon="2.14486">
        <ele>61</ele>
        <time>2012-05-20T08:48:14Z</time>
      </trkpt>
      <trkpt lat="49.15148" lon="2.14472">
        <ele>57</ele>
        <time>2012-05-20T08:48:23Z</time>
      </trkpt>
      <trkpt lat="49.15146" lon="2.14469">
        <ele>56</ele>
        <time>2012-05-20T08:48:25Z</time>
      </trkpt>
      <trkpt lat="49.15141" lon="2.14441">
        <ele>53</ele>
        <time>2012-05-20T08:48:45Z</time>
      </trkpt>
      <trkpt lat="49.15138" lon="2.14409">
        <ele>53</ele>
        <time>2012-05-20T08:49:07Z</time>
      </trkpt>
      <trkpt lat="49.15123" lon="2.14372">
        <ele>55</ele>
        <time>2012-05-20T08:49:29Z</time>
      </trkpt>
      <trkpt lat="49.15123" lon="2.14347">
        <ele>58</ele>
        <time>2012-05-20T08:49:48Z</time>
      </trkpt>
      <trkpt lat="49.15114" lon="2.14303">
        <ele>60</ele>
        <time>2012-05-20T08:50:11Z</time>
      </trkpt>
      <trkpt lat="49.15106" lon="2.14285">
        <ele>62</ele>
        <time>2012-05-20T08:50:23Z</time>
      </trkpt>
      <trkpt lat="49.15088" lon="2.14249">
        <ele>64</ele>
        <time>2012-05-20T08:50:45Z</time>
      </trkpt>
      <trkpt lat="49.15081" lon="2.14243">
        <ele>64</ele>
        <time>2012-05-20T08:51:20Z</time>
      </trkpt>
      <trkpt lat="49.15109" lon="2.14243">
        <ele>61</ele>
        <time>2012-05-20T08:51:48Z</time>
      </trkpt>
      <trkpt lat="49.15141" lon="2.14235">
        <ele>60</ele>
        <time>2012-05-20T08:52:12Z</time>
      </trkpt>
      <trkpt lat="49.15154" lon="2.14233">
        <ele>59</ele>
        <time>2012-05-20T08:52:23Z</time>
      </trkpt>
      <trkpt lat="49.15182" lon="2.14222">
        <ele>58</ele>
        <time>2012-05-20T08:52:46Z</time>
      </trkpt>
      <trkpt lat="49.15218" lon="2.14209">
        <ele>56</ele>
        <time>2012-05-20T08:53:15Z</time>
      </trkpt>
      <trkpt lat="49.15242" lon="2.14191">
        <ele>54</ele>
        <time>2012-05-20T08:53:45Z</time>
      </trkpt>
      <trkpt lat="49.15278" lon="2.14203">
        <ele>53</ele>
        <time>2012-05-20T08:54:14Z</time>
      </trkpt>
      <trkpt lat="49.15292" lon="2.14225">
        <ele>53</ele>
        <time>2012-05-20T08:54:38Z</time>
      </trkpt>
      <trkpt lat="49.15307" lon="2.14233">
        <ele>52</ele>
        <time>2012-05-20T08:54:50Z</time>
      </trkpt>
      <trkpt lat="49.15351" lon="2.14242">
        <ele>51</ele>
        <time>2012-05-20T08:55:19Z</time>
      </trkpt>
      <trkpt lat="49.15366" lon="2.14241">
        <ele>50</ele>
        <time>2012-05-20T08:55:36Z</time>
      </trkpt>
      <trkpt lat="49.15397" lon="2.14251">
        <ele>51</ele>
        <time>2012-05-20T08:56:06Z</time>
      </trkpt>
      <trkpt lat="49.15423" lon="2.1425">
        <ele>52</ele>
        <time>2012-05-20T08:56:35Z</time>
      </trkpt>
      <trkpt lat="49.15438" lon="2.14255">
        <ele>52</ele>
        <time>2012-05-20T08:56:48Z</time>
      </trkpt>
      <trkpt lat="49.1546" lon="2.1426">
        <ele>53</ele>
        <time>2012-05-20T08:57:03Z</time>
      </trkpt>
      <trkpt lat="49.15468" lon="2.14262">
        <ele>53</ele>
        <time>2012-05-20T08:57:09Z</time>
      </trkpt>
      <trkpt lat="49.15482" lon="2.1426">
        <ele>54</ele>
        <time>2012-05-20T08:57:23Z</time>
      </trkpt>
      <trkpt lat="49.15486" lon="2.14263">
        <ele>54</ele>
        <time>2012-05-20T08:57:25Z</time>
      </trkpt>
      <trkpt lat="49.15507" lon="2.14267">
        <ele>55</ele>
        <time>2012-05-20T08:57:40Z</time>
      </trkpt>
      <trkpt lat="49.15519" lon="2.14268">
        <ele>55</ele>
        <time>2012-05-20T08:57:55Z</time>
      </trkpt>
      <trkpt lat="49.15549" lon="2.14265">
        <ele>58</ele>
        <time>2012-05-20T08:58:56Z</time>
      </trkpt>
      <trkpt lat="49.15571" lon="2.14231">
        <ele>61</ele>
        <time>2012-05-20T08:59:21Z</time>
      </trkpt>
      <trkpt lat="49.15574" lon="2.14225">
        <ele>61</ele>
        <time>2012-05-20T08:59:24Z</time>
      </trkpt>
      <trkpt lat="49.15591" lon="2.14193">
        <ele>64</ele>
        <time>2012-05-20T08:59:46Z</time>
      </trkpt>
      <trkpt lat="49.15603" lon="2.14181">
        <ele>63</ele>
        <time>2012-05-20T09:00:12Z</time>
      </trkpt>
      <trkpt lat="49.15626" lon="2.14153">
        <ele>61</ele>
        <time>2012-05-20T09:00:41Z</time>
      </trkpt>
      <trkpt lat="49.1563" lon="2.14146">
        <ele>61</ele>
        <time>2012-05-20T09:00:46Z</time>
      </trkpt>
      <trkpt lat="49.15649" lon="2.14103">
        <ele>57</ele>
        <time>2012-05-20T09:01:10Z</time>
      </trkpt>
      <trkpt lat="49.15656" lon="2.14096">
        <ele>56</ele>
        <time>2012-05-20T09:01:16Z</time>
      </trkpt>
      <trkpt lat="49.15669" lon="2.14066">
        <ele>55</ele>
        <time>2012-05-20T09:01:39Z</time>
      </trkpt>
      <trkpt lat="49.15692" lon="2.14038">
        <ele>54</ele>
        <time>2012-05-20T09:02:01Z</time>
      </trkpt>
      <trkpt lat="49.15711" lon="2.14019">
        <ele>54</ele>
        <time>2012-05-20T09:02:21Z</time>
      </trkpt>
      <trkpt lat="49.15732" lon="2.13988">
        <ele>53</ele>
        <time>2012-05-20T09:02:41Z</time>
      </trkpt>
      <trkpt lat="49.15746" lon="2.13955">
        <ele>52</ele>
        <time>2012-05-20T09:03:08Z</time>
      </trkpt>
      <trkpt lat="49.15773" lon="2.1392">
        <ele>53</ele>
        <time>2012-05-20T09:03:41Z</time>
      </trkpt>
      <trkpt lat="49.15793" lon="2.13888">
        <ele>55</ele>
        <time>2012-05-20T09:04:05Z</time>
      </trkpt>
      <trkpt lat="49.15795" lon="2.13884">
        <ele>54</ele>
        <time>2012-05-20T09:04:07Z</time>
      </trkpt>
      <trkpt lat="49.15797" lon="2.13882">
        <ele>55</ele>
        <time>2012-05-20T09:04:10Z</time>
      </trkpt>
      <trkpt lat="49.15815" lon="2.13869">
        <ele>54</ele>
        <time>2012-05-20T09:04:22Z</time>
      </trkpt>
      <trkpt lat="49.15831" lon="2.13836">
        <ele>55</ele>
        <time>2012-05-20T09:04:46Z</time>
      </trkpt>
      <trkpt lat="49.15856" lon="2.1382">
        <ele>55</ele>
        <time>2012-05-20T09:05:10Z</time>
      </trkpt>
      <trkpt lat="49.15883" lon="2.13812">
        <ele>52</ele>
        <time>2012-05-20T09:05:36Z</time>
      </trkpt>
      <trkpt lat="49.15886" lon="2.13814">
        <ele>52</ele>
        <time>2012-05-20T09:05:39Z</time>
      </trkpt>
      <trkpt lat="49.1591" lon="2.13845">
        <ele>51</ele>
        <time>2012-05-20T09:06:05Z</time>
      </trkpt>
      <trkpt lat="49.15939" lon="2.13876">
        <ele>53</ele>
        <time>2012-05-20T09:06:35Z</time>
      </trkpt>
      <trkpt lat="49.15978" lon="2.13887">
        <ele>55</ele>
        <time>2012-05-20T09:07:06Z</time>
      </trkpt>
      <trkpt lat="49.16002" lon="2.13898">
        <ele>56</ele>
        <time>2012-05-20T09:07:30Z</time>
      </trkpt>
      <trkpt lat="49.16005" lon="2.13897">
        <ele>56</ele>
        <time>2012-05-20T09:07:33Z</time>
      </trkpt>
      <trkpt lat="49.16031" lon="2.13913">
        <ele>58</ele>
        <time>2012-05-20T09:07:56Z</time>
      </trkpt>
      <trkpt lat="49.16055" lon="2.13941">
        <ele>59</ele>
        <time>2012-05-20T09:08:21Z</time>
      </trkpt>
      <trkpt lat="49.16067" lon="2.13952">
        <ele>59</ele>
        <time>2012-05-20T09:08:33Z</time>
      </trkpt>
      <trkpt lat="49.16079" lon="2.13972">
        <ele>60</ele>
        <time>2012-05-20T09:08:49Z</time>
      </trkpt>
      <trkpt lat="49.16076" lon="2.13976">
        <ele>60</ele>
        <time>2012-05-20T09:09:28Z</time>
      </trkpt>
      <trkpt lat="49.16074" lon="2.13967">
        <ele>59</ele>
        <time>2012-05-20T09:11:14Z</time>
      </trkpt>
      <trkpt lat="49.16091" lon="2.13951">
        <ele>57</ele>
        <time>2012-05-20T09:11:28Z</time>
      </trkpt>
      <trkpt lat="49.16094" lon="2.13948">
        <ele>57</ele>
        <time>2012-05-20T09:11:30Z</time>
      </trkpt>
      <trkpt lat="49.16098" lon="2.13944">
        <ele>56</ele>
        <time>2012-05-20T09:11:33Z</time>
      </trkpt>
      <trkpt lat="49.16106" lon="2.13918">
        <ele>55</ele>
        <time>2012-05-20T09:11:45Z</time>
      </trkpt>
      <trkpt lat="49.16106" lon="2.13917">
        <ele>55</ele>
        <time>2012-05-20T09:11:46Z</time>
      </trkpt>
      <trkpt lat="49.16111" lon="2.13909">
        <ele>54</ele>
        <time>2012-05-20T09:11:51Z</time>
      </trkpt>
      <trkpt lat="49.16122" lon="2.13883">
        <ele>54</ele>
        <time>2012-05-20T09:12:10Z</time>
      </trkpt>
      <trkpt lat="49.16129" lon="2.1387">
        <ele>54</ele>
        <time>2012-05-20T09:12:24Z</time>
      </trkpt>
      <trkpt lat="49.16137" lon="2.13855">
        <ele>55</ele>
        <time>2012-05-20T09:12:48Z</time>
      </trkpt>
      <trkpt lat="49.16139" lon="2.1385">
        <ele>56</ele>
        <time>2012-05-20T09:12:56Z</time>
      </trkpt>
      <trkpt lat="49.16141" lon="2.1385">
        <ele>54</ele>
        <time>2012-05-20T09:12:58Z</time>
      </trkpt>
      <trkpt lat="49.16144" lon="2.13849">
        <ele>54</ele>
        <time>2012-05-20T09:13:00Z</time>
      </trkpt>
      <trkpt lat="49.16147" lon="2.13845">
        <ele>55</ele>
        <time>2012-05-20T09:13:06Z</time>
      </trkpt>
      <trkpt lat="49.16154" lon="2.13835">
        <ele>56</ele>
        <time>2012-05-20T09:13:19Z</time>
      </trkpt>
      <trkpt lat="49.16156" lon="2.13836">
        <ele>56</ele>
        <time>2012-05-20T09:13:20Z</time>
      </trkpt>
      <trkpt lat="49.16159" lon="2.13837">
        <ele>56</ele>
        <time>2012-05-20T09:13:22Z</time>
      </trkpt>
      <trkpt lat="49.16174" lon="2.13824">
        <ele>58</ele>
        <time>2012-05-20T09:13:37Z</time>
      </trkpt>
      <trkpt lat="49.16184" lon="2.13806">
        <ele>58</ele>
        <time>2012-05-20T09:13:49Z</time>
      </trkpt>
      <trkpt lat="49.16188" lon="2.13797">
        <ele>60</ele>
        <time>2012-05-20T09:13:54Z</time>
      </trkpt>
      <trkpt lat="49.16192" lon="2.13779">
        <ele>61</ele>
        <time>2012-05-20T09:14:05Z</time>
      </trkpt>
      <trkpt lat="49.16193" lon="2.13774">
        <ele>60</ele>
        <time>2012-05-20T09:14:08Z</time>
      </trkpt>
      <trkpt lat="49.16209" lon="2.13758">
        <ele>63</ele>
        <time>2012-05-20T09:14:24Z</time>
      </trkpt>
      <trkpt lat="49.16218" lon="2.13745">
        <ele>64</ele>
        <time>2012-05-20T09:14:33Z</time>
      </trkpt>
      <trkpt lat="49.1622" lon="2.13737">
        <ele>65</ele>
        <time>2012-05-20T09:14:38Z</time>
      </trkpt>
      <trkpt lat="49.16226" lon="2.13726">
        <ele>66</ele>
        <time>2012-05-20T09:14:45Z</time>
      </trkpt>
      <trkpt lat="49.16231" lon="2.13716">
        <ele>65</ele>
        <time>2012-05-20T09:14:52Z</time>
      </trkpt>
      <trkpt lat="49.16233" lon="2.1371">
        <ele>66</ele>
        <time>2012-05-20T09:14:56Z</time>
      </trkpt>
      <trkpt lat="49.1623" lon="2.13699">
        <ele>66</ele>
        <time>2012-05-20T09:15:04Z</time>
      </trkpt>
      <trkpt lat="49.16234" lon="2.13663">
        <ele>67</ele>
        <time>2012-05-20T09:15:21Z</time>
      </trkpt>
      <trkpt lat="49.16239" lon="2.13647">
        <ele>68</ele>
        <time>2012-05-20T09:15:29Z</time>
      </trkpt>
      <trkpt lat="49.1624" lon="2.13631">
        <ele>68</ele>
        <time>2012-05-20T09:15:38Z</time>
      </trkpt>
      <trkpt lat="49.16243" lon="2.13603">
        <ele>69</ele>
        <time>2012-05-20T09:15:53Z</time>
      </trkpt>
      <trkpt lat="49.16244" lon="2.13599">
        <ele>70</ele>
        <time>2012-05-20T09:15:55Z</time>
      </trkpt>
      <trkpt lat="49.16249" lon="2.13597">
        <ele>69</ele>
        <time>2012-05-20T09:15:59Z</time>
      </trkpt>
      <trkpt lat="49.16247" lon="2.1358">
        <ele>69</ele>
        <time>2012-05-20T09:16:11Z</time>
      </trkpt>
      <trkpt lat="49.16248" lon="2.13544">
        <ele>70</ele>
        <time>2012-05-20T09:16:31Z</time>
      </trkpt>
      <trkpt lat="49.1625" lon="2.13533">
        <ele>70</ele>
        <time>2012-05-20T09:16:42Z</time>
      </trkpt>
      <trkpt lat="49.16253" lon="2.13534">
        <ele>71</ele>
        <time>2012-05-20T09:16:50Z</time>
      </trkpt>
      <trkpt lat="49.16256" lon="2.13527">
        <ele>70</ele>
        <time>2012-05-20T09:16:52Z</time>
      </trkpt>
      <trkpt lat="49.16257" lon="2.13503">
        <ele>71</ele>
        <time>2012-05-20T09:17:05Z</time>
      </trkpt>
      <trkpt lat="49.16266" lon="2.13484">
        <ele>71</ele>
        <time>2012-05-20T09:17:17Z</time>
      </trkpt>
      <trkpt lat="49.16268" lon="2.13464">
        <ele>71</ele>
        <time>2012-05-20T09:17:29Z</time>
      </trkpt>
      <trkpt lat="49.1627" lon="2.13459">
        <ele>71</ele>
        <time>2012-05-20T09:17:33Z</time>
      </trkpt>
      <trkpt lat="49.16273" lon="2.13435">
        <ele>72</ele>
        <time>2012-05-20T09:17:48Z</time>
      </trkpt>
      <trkpt lat="49.16273" lon="2.13433">
        <ele>72</ele>
        <time>2012-05-20T09:17:49Z</time>
      </trkpt>
      <trkpt lat="49.16282" lon="2.13407">
        <ele>72</ele>
        <time>2012-05-20T09:18:04Z</time>
      </trkpt>
      <trkpt lat="49.16282" lon="2.13392">
        <ele>72</ele>
        <time>2012-05-20T09:18:11Z</time>
      </trkpt>
      <trkpt lat="49.16287" lon="2.13386">
        <ele>73</ele>
        <time>2012-05-20T09:18:17Z</time>
      </trkpt>
      <trkpt lat="49.16293" lon="2.13377">
        <ele>74</ele>
        <time>2012-05-20T09:18:26Z</time>
      </trkpt>
      <trkpt lat="49.16304" lon="2.13359">
        <ele>75</ele>
        <time>2012-05-20T09:18:39Z</time>
      </trkpt>
      <trkpt lat="49.16321" lon="2.13327">
        <ele>75</ele>
        <time>2012-05-20T09:19:01Z</time>
      </trkpt>
      <trkpt lat="49.16331" lon="2.13312">
        <ele>75</ele>
        <time>2012-05-20T09:19:18Z</time>
      </trkpt>
      <trkpt lat="49.16357" lon="2.1328">
        <ele>78</ele>
        <time>2012-05-20T09:19:46Z</time>
      </trkpt>
      <trkpt lat="49.16374" lon="2.13251">
        <ele>79</ele>
        <time>2012-05-20T09:20:10Z</time>
      </trkpt>
      <trkpt lat="49.16398" lon="2.13234">
        <ele>82</ele>
        <time>2012-05-20T09:20:36Z</time>
      </trkpt>
      <trkpt lat="49.16409" lon="2.13224">
        <ele>84</ele>
        <time>2012-05-20T09:20:49Z</time>
      </trkpt>
      <trkpt lat="49.1643" lon="2.13204">
        <ele>87</ele>
        <time>2012-05-20T09:21:10Z</time>
      </trkpt>
      <trkpt lat="49.16442" lon="2.1318">
        <ele>89</ele>
        <time>2012-05-20T09:21:29Z</time>
      </trkpt>
      <trkpt lat="49.16458" lon="2.13175">
        <ele>89</ele>
        <time>2012-05-20T09:21:53Z</time>
      </trkpt>
      <trkpt lat="49.16462" lon="2.13163">
        <ele>89</ele>
        <time>2012-05-20T09:22:10Z</time>
      </trkpt>
      <trkpt lat="49.16466" lon="2.13158">
        <ele>89</ele>
        <time>2012-05-20T09:22:15Z</time>
      </trkpt>
      <trkpt lat="49.16471" lon="2.13152">
        <ele>89</ele>
        <time>2012-05-20T09:22:27Z</time>
      </trkpt>
      <trkpt lat="49.16482" lon="2.13127">
        <ele>89</ele>
        <time>2012-05-20T09:22:43Z</time>
      </trkpt>
      <trkpt lat="49.16501" lon="2.131">
        <ele>90</ele>
        <time>2012-05-20T09:23:05Z</time>
      </trkpt>
      <trkpt lat="49.16521" lon="2.13084">
        <ele>92</ele>
        <time>2012-05-20T09:23:29Z</time>
      </trkpt>
      <trkpt lat="49.16535" lon="2.13063">
        <ele>94</ele>
        <time>2012-05-20T09:24:17Z</time>
      </trkpt>
      <trkpt lat="49.16559" lon="2.13049">
        <ele>94</ele>
        <time>2012-05-20T09:24:40Z</time>
      </trkpt>
      <trkpt lat="49.16581" lon="2.13033">
        <ele>95</ele>
        <time>2012-05-20T09:25:00Z</time>
      </trkpt>
      <trkpt lat="49.1657" lon="2.13007">
        <ele>94</ele>
        <time>2012-05-20T09:26:10Z</time>
      </trkpt>
      <trkpt lat="49.16578" lon="2.13011">
        <ele>93</ele>
        <time>2012-05-20T09:27:33Z</time>
      </trkpt>
      <trkpt lat="49.16605" lon="2.12991">
        <ele>94</ele>
        <time>2012-05-20T09:28:34Z</time>
      </trkpt>
      <trkpt lat="49.16627" lon="2.12977">
        <ele>93</ele>
        <time>2012-05-20T09:28:52Z</time>
      </trkpt>
      <trkpt lat="49.16647" lon="2.12961">
        <ele>93</ele>
        <time>2012-05-20T09:29:18Z</time>
      </trkpt>
      <trkpt lat="49.16664" lon="2.12954">
        <ele>94</ele>
        <time>2012-05-20T09:29:40Z</time>
      </trkpt>
      <trkpt lat="49.16684" lon="2.12933">
        <ele>94</ele>
        <time>2012-05-20T09:30:00Z</time>
      </trkpt>
      <trkpt lat="49.1669" lon="2.12929">
        <ele>94</ele>
        <time>2012-05-20T09:30:26Z</time>
      </trkpt>
      <trkpt lat="49.16699" lon="2.12911">
        <ele>94</ele>
        <time>2012-05-20T09:30:43Z</time>
      </trkpt>
      <trkpt lat="49.16714" lon="2.1288">
        <ele>95</ele>
        <time>2012-05-20T09:31:01Z</time>
      </trkpt>
      <trkpt lat="49.16726" lon="2.12851">
        <ele>96</ele>
        <time>2012-05-20T09:31:18Z</time>
      </trkpt>
      <trkpt lat="49.16737" lon="2.12828">
        <ele>96</ele>
        <time>2012-05-20T09:31:33Z</time>
      </trkpt>
      <trkpt lat="49.16747" lon="2.12804">
        <ele>97</ele>
        <time>2012-05-20T09:31:50Z</time>
      </trkpt>
      <trkpt lat="49.16757" lon="2.12772">
        <ele>98</ele>
        <time>2012-05-20T09:32:06Z</time>
      </trkpt>
      <trkpt lat="49.16768" lon="2.1275">
        <ele>98</ele>
        <time>2012-05-20T09:32:20Z</time>
      </trkpt>
      <trkpt lat="49.16772" lon="2.12738">
        <ele>99</ele>
        <time>2012-05-20T09:32:26Z</time>
      </trkpt>
      <trkpt lat="49.16771" lon="2.12735">
        <ele>98</ele>
        <time>2012-05-20T09:32:28Z</time>
      </trkpt>
      <trkpt lat="49.16774" lon="2.12731">
        <ele>99</ele>
        <time>2012-05-20T09:32:31Z</time>
      </trkpt>
      <trkpt lat="49.16782" lon="2.12718">
        <ele>99</ele>
        <time>2012-05-20T09:32:41Z</time>
      </trkpt>
      <trkpt lat="49.1679" lon="2.12701">
        <ele>99</ele>
        <time>2012-05-20T09:32:50Z</time>
      </trkpt>
      <trkpt lat="49.16796" lon="2.12686">
        <ele>99</ele>
        <time>2012-05-20T09:32:58Z</time>
      </trkpt>
      <trkpt lat="49.16802" lon="2.12671">
        <ele>100</ele>
        <time>2012-05-20T09:33:17Z</time>
      </trkpt>
      <trkpt lat="49.168" lon="2.12662">
        <ele>99</ele>
        <time>2012-05-20T09:33:43Z</time>
      </trkpt>
      <trkpt lat="49.16802" lon="2.12668">
        <ele>100</ele>
        <time>2012-05-20T09:34:33Z</time>
      </trkpt>
      <trkpt lat="49.16809" lon="2.12656">
        <ele>100</ele>
        <time>2012-05-20T09:34:55Z</time>
      </trkpt>
      <trkpt lat="49.16816" lon="2.12639">
        <ele>100</ele>
        <time>2012-05-20T09:35:16Z</time>
      </trkpt>
      <trkpt lat="49.16815" lon="2.12627">
        <ele>100</ele>
        <time>2012-05-20T09:35:41Z</time>
      </trkpt>
      <trkpt lat="49.16819" lon="2.12623">
        <ele>100</ele>
        <time>2012-05-20T09:35:45Z</time>
      </trkpt>
      <trkpt lat="49.16833" lon="2.12601">
        <ele>101</ele>
        <time>2012-05-20T09:35:59Z</time>
      </trkpt>
      <trkpt lat="49.16847" lon="2.12576">
        <ele>99</ele>
        <time>2012-05-20T09:36:17Z</time>
      </trkpt>
      <trkpt lat="49.16864" lon="2.12542">
        <ele>99</ele>
        <time>2012-05-20T09:36:36Z</time>
      </trkpt>
      <trkpt lat="49.16877" lon="2.12508">
        <ele>99</ele>
        <time>2012-05-20T09:36:52Z</time>
      </trkpt>
      <trkpt lat="49.16884" lon="2.1247">
        <ele>99</ele>
        <time>2012-05-20T09:37:11Z</time>
      </trkpt>
      <trkpt lat="49.16886" lon="2.1246">
        <ele>98</ele>
        <time>2012-05-20T09:37:16Z</time>
      </trkpt>
      <trkpt lat="49.16888" lon="2.12453">
        <ele>98</ele>
        <time>2012-05-20T09:37:19Z</time>
      </trkpt>
      <trkpt lat="49.16889" lon="2.12441">
        <ele>98</ele>
        <time>2012-05-20T09:37:25Z</time>
      </trkpt>
      <trkpt lat="49.16901" lon="2.12404">
        <ele>98</ele>
        <time>2012-05-20T09:37:44Z</time>
      </trkpt>
      <trkpt lat="49.16895" lon="2.1238">
        <ele>97</ele>
        <time>2012-05-20T09:38:05Z</time>
      </trkpt>
      <trkpt lat="49.16895" lon="2.12382">
        <ele>96</ele>
        <time>2012-05-20T09:38:54Z</time>
      </trkpt>
      <trkpt lat="49.16908" lon="2.12351">
        <ele>95</ele>
        <time>2012-05-20T09:39:18Z</time>
      </trkpt>
      <trkpt lat="49.16908" lon="2.12297">
        <ele>92</ele>
        <time>2012-05-20T09:39:46Z</time>
      </trkpt>
      <trkpt lat="49.16907" lon="2.12263">
        <ele>89</ele>
        <time>2012-05-20T09:40:04Z</time>
      </trkpt>
      <trkpt lat="49.16906" lon="2.12214">
        <ele>86</ele>
        <time>2012-05-20T09:40:30Z</time>
      </trkpt>
      <trkpt lat="49.16905" lon="2.12198">
        <ele>85</ele>
        <time>2012-05-20T09:40:38Z</time>
      </trkpt>
      <trkpt lat="49.16908" lon="2.12186">
        <ele>83</ele>
        <time>2012-05-20T09:40:45Z</time>
      </trkpt>
      <trkpt lat="49.1691" lon="2.12176">
        <ele>82</ele>
        <time>2012-05-20T09:40:52Z</time>
      </trkpt>
      <trkpt lat="49.16915" lon="2.12146">
        <ele>79</ele>
        <time>2012-05-20T09:41:12Z</time>
      </trkpt>
      <trkpt lat="49.16919" lon="2.12117">
        <ele>76</ele>
        <time>2012-05-20T09:41:27Z</time>
      </trkpt>
      <trkpt lat="49.16928" lon="2.12084">
        <ele>73</ele>
        <time>2012-05-20T09:41:48Z</time>
      </trkpt>
      <trkpt lat="49.16941" lon="2.12049">
        <ele>69</ele>
        <time>2012-05-20T09:42:07Z</time>
      </trkpt>
      <trkpt lat="49.16931" lon="2.12031">
        <ele>68</ele>
        <time>2012-05-20T09:42:19Z</time>
      </trkpt>
      <trkpt lat="49.16935" lon="2.12009">
        <ele>66</ele>
        <time>2012-05-20T09:42:35Z</time>
      </trkpt>
      <trkpt lat="49.16943" lon="2.11988">
        <ele>64</ele>
        <time>2012-05-20T09:42:48Z</time>
      </trkpt>
      <trkpt lat="49.16952" lon="2.11969">
        <ele>62</ele>
        <time>2012-05-20T09:43:02Z</time>
      </trkpt>
      <trkpt lat="49.16962" lon="2.11949">
        <ele>62</ele>
        <time>2012-05-20T09:43:13Z</time>
      </trkpt>
      <trkpt lat="49.16973" lon="2.11928">
        <ele>61</ele>
        <time>2012-05-20T09:43:27Z</time>
      </trkpt>
      <trkpt lat="49.16977" lon="2.11919">
        <ele>60</ele>
        <time>2012-05-20T09:43:33Z</time>
      </trkpt>
      <trkpt lat="49.16982" lon="2.11913">
        <ele>60</ele>
        <time>2012-05-20T09:43:38Z</time>
      </trkpt>
      <trkpt lat="49.16991" lon="2.11905">
        <ele>60</ele>
        <time>2012-05-20T09:43:46Z</time>
      </trkpt>
      <trkpt lat="49.16992" lon="2.11902">
        <ele>60</ele>
        <time>2012-05-20T09:43:49Z</time>
      </trkpt>
      <trkpt lat="49.16998" lon="2.11883">
        <ele>60</ele>
        <time>2012-05-20T09:43:58Z</time>
      </trkpt>
      <trkpt lat="49.1701" lon="2.11856">
        <ele>60</ele>
        <time>2012-05-20T09:44:12Z</time>
      </trkpt>
      <trkpt lat="49.17015" lon="2.11837">
        <ele>60</ele>
        <time>2012-05-20T09:44:22Z</time>
      </trkpt>
      <trkpt lat="49.17013" lon="2.11826">
        <ele>61</ele>
        <time>2012-05-20T09:44:28Z</time>
      </trkpt>
      <trkpt lat="49.17015" lon="2.11809">
        <ele>61</ele>
        <time>2012-05-20T09:44:37Z</time>
      </trkpt>
      <trkpt lat="49.17014" lon="2.11803">
        <ele>62</ele>
        <time>2012-05-20T09:44:41Z</time>
      </trkpt>
      <trkpt lat="49.1702" lon="2.11788">
        <ele>63</ele>
        <time>2012-05-20T09:44:50Z</time>
      </trkpt>
      <trkpt lat="49.17037" lon="2.11755">
        <ele>64</ele>
        <time>2012-05-20T09:45:04Z</time>
      </trkpt>
      <trkpt lat="49.17047" lon="2.11737">
        <ele>65</ele>
        <time>2012-05-20T09:45:16Z</time>
      </trkpt>
      <trkpt lat="49.17068" lon="2.11725">
        <ele>63</ele>
        <time>2012-05-20T09:45:34Z</time>
      </trkpt>
      <trkpt lat="49.17071" lon="2.11717">
        <ele>62</ele>
        <time>2012-05-20T09:45:52Z</time>
      </trkpt>
      <trkpt lat="49.17069" lon="2.11701">
        <ele>61</ele>
        <time>2012-05-20T09:46:18Z</time>
      </trkpt>
      <trkpt lat="49.17056" lon="2.11686">
        <ele>59</ele>
        <time>2012-05-20T09:46:34Z</time>
      </trkpt>
      <trkpt lat="49.1705" lon="2.11678">
        <ele>59</ele>
        <time>2012-05-20T09:46:40Z</time>
      </trkpt>
      <trkpt lat="49.17043" lon="2.11674">
        <ele>58</ele>
        <time>2012-05-20T09:46:46Z</time>
      </trkpt>
      <trkpt lat="49.17032" lon="2.11663">
        <ele>57</ele>
        <time>2012-05-20T09:46:55Z</time>
      </trkpt>
      <trkpt lat="49.17029" lon="2.11657">
        <ele>57</ele>
        <time>2012-05-20T09:46:59Z</time>
      </trkpt>
      <trkpt lat="49.17014" lon="2.11658">
        <ele>57</ele>
        <time>2012-05-20T09:47:07Z</time>
      </trkpt>
      <trkpt lat="49.17009" lon="2.11656">
        <ele>56</ele>
        <time>2012-05-20T09:47:11Z</time>
      </trkpt>
      <trkpt lat="49.16999" lon="2.11639">
        <ele>55</ele>
        <time>2012-05-20T09:47:23Z</time>
      </trkpt>
      <trkpt lat="49.16989" lon="2.11627">
        <ele>55</ele>
        <time>2012-05-20T09:47:33Z</time>
      </trkpt>
      <trkpt lat="49.16983" lon="2.11622">
        <ele>55</ele>
        <time>2012-05-20T09:47:37Z</time>
      </trkpt>
      <trkpt lat="49.16977" lon="2.11615">
        <ele>56</ele>
        <time>2012-05-20T09:47:43Z</time>
      </trkpt>
      <trkpt lat="49.1697" lon="2.11603">
        <ele>55</ele>
        <time>2012-05-20T09:47:52Z</time>
      </trkpt>
      <trkpt lat="49.1697" lon="2.11598">
        <ele>55</ele>
        <time>2012-05-20T09:48:11Z</time>
      </trkpt>
      <trkpt lat="49.16959" lon="2.11593">
        <ele>55</ele>
        <time>2012-05-20T09:48:27Z</time>
      </trkpt>
      <trkpt lat="49.16956" lon="2.11586">
        <ele>55</ele>
        <time>2012-05-20T09:48:39Z</time>
      </trkpt>
      <trkpt lat="49.1695" lon="2.11581">
        <ele>56</ele>
        <time>2012-05-20T09:48:56Z</time>
      </trkpt>
      <trkpt lat="49.16947" lon="2.11584">
        <ele>56</ele>
        <time>2012-05-20T09:49:17Z</time>
      </trkpt>
      <trkpt lat="49.16943" lon="2.11582">
        <ele>55</ele>
        <time>2012-05-20T09:49:49Z</time>
      </trkpt>
      <trkpt lat="49.16925" lon="2.11568">
        <ele>56</ele>
        <time>2012-05-20T09:50:06Z</time>
      </trkpt>
      <trkpt lat="49.16906" lon="2.11545">
        <ele>58</ele>
        <time>2012-05-20T09:50:33Z</time>
      </trkpt>
      <trkpt lat="49.16876" lon="2.11505">
        <ele>62</ele>
        <time>2012-05-20T09:50:58Z</time>
      </trkpt>
      <trkpt lat="49.16867" lon="2.11482">
        <ele>63</ele>
        <time>2012-05-20T09:51:16Z</time>
      </trkpt>
      <trkpt lat="49.16863" lon="2.11442">
        <ele>66</ele>
        <time>2012-05-20T09:51:39Z</time>
      </trkpt>
      <trkpt lat="49.16861" lon="2.11434">
        <ele>66</ele>
        <time>2012-05-20T09:51:44Z</time>
      </trkpt>
      <trkpt lat="49.16849" lon="2.11385">
        <ele>69</ele>
        <time>2012-05-20T09:52:17Z</time>
      </trkpt>
      <trkpt lat="49.16835" lon="2.11343">
        <ele>71</ele>
        <time>2012-05-20T09:52:44Z</time>
      </trkpt>
      <trkpt lat="49.16832" lon="2.11299">
        <ele>75</ele>
        <time>2012-05-20T09:53:11Z</time>
      </trkpt>
      <trkpt lat="49.16826" lon="2.1126">
        <ele>77</ele>
        <time>2012-05-20T09:53:38Z</time>
      </trkpt>
      <trkpt lat="49.16815" lon="2.11223">
        <ele>80</ele>
        <time>2012-05-20T09:54:08Z</time>
      </trkpt>
      <trkpt lat="49.16809" lon="2.11167">
        <ele>83</ele>
        <time>2012-05-20T09:54:36Z</time>
      </trkpt>
      <trkpt lat="49.16807" lon="2.1114">
        <ele>85</ele>
        <time>2012-05-20T09:54:47Z</time>
      </trkpt>
      <trkpt lat="49.16809" lon="2.11121">
        <ele>86</ele>
        <time>2012-05-20T09:55:02Z</time>
      </trkpt>
      <trkpt lat="49.16809" lon="2.11088">
        <ele>87</ele>
        <time>2012-05-20T09:55:21Z</time>
      </trkpt>
      <trkpt lat="49.16808" lon="2.11058">
        <ele>89</ele>
        <time>2012-05-20T09:55:44Z</time>
      </trkpt>
      <trkpt lat="49.16807" lon="2.11012">
        <ele>89</ele>
        <time>2012-05-20T09:56:09Z</time>
      </trkpt>
      <trkpt lat="49.16806" lon="2.1096">
        <ele>90</ele>
        <time>2012-05-20T09:56:41Z</time>
      </trkpt>
      <trkpt lat="49.16807" lon="2.10943">
        <ele>90</ele>
        <time>2012-05-20T09:56:48Z</time>
      </trkpt>
      <trkpt lat="49.16812" lon="2.10912">
        <ele>91</ele>
        <time>2012-05-20T09:57:02Z</time>
      </trkpt>
      <trkpt lat="49.16812" lon="2.10906">
        <ele>91</ele>
        <time>2012-05-20T09:57:06Z</time>
      </trkpt>
      <trkpt lat="49.16808" lon="2.10879">
        <ele>92</ele>
        <time>2012-05-20T09:57:24Z</time>
      </trkpt>
      <trkpt lat="49.16809" lon="2.10853">
        <ele>93</ele>
        <time>2012-05-20T09:57:40Z</time>
      </trkpt>
      <trkpt lat="49.16808" lon="2.10835">
        <ele>92</ele>
        <time>2012-05-20T09:57:49Z</time>
      </trkpt>
      <trkpt lat="49.16807" lon="2.10834">
        <ele>93</ele>
        <time>2012-05-20T09:57:51Z</time>
      </trkpt>
      <trkpt lat="49.1681" lon="2.10824">
        <ele>93</ele>
        <time>2012-05-20T09:57:56Z</time>
      </trkpt>
      <trkpt lat="49.16808" lon="2.10808">
        <ele>93</ele>
        <time>2012-05-20T09:58:06Z</time>
      </trkpt>
      <trkpt lat="49.16805" lon="2.108">
        <ele>95</ele>
        <time>2012-05-20T09:58:11Z</time>
      </trkpt>
      <trkpt lat="49.16808" lon="2.10783">
        <ele>94</ele>
        <time>2012-05-20T09:58:20Z</time>
      </trkpt>
      <trkpt lat="49.1681" lon="2.10765">
        <ele>94</ele>
        <time>2012-05-20T09:58:31Z</time>
      </trkpt>
      <trkpt lat="49.16807" lon="2.10751">
        <ele>95</ele>
        <time>2012-05-20T09:58:46Z</time>
      </trkpt>
      <trkpt lat="49.16798" lon="2.10749">
        <ele>96</ele>
        <time>2012-05-20T10:03:06Z</time>
      </trkpt>
      <trkpt lat="49.16773" lon="2.10756">
        <ele>95</ele>
        <time>2012-05-20T10:03:22Z</time>
      </trkpt>
      <trkpt lat="49.16769" lon="2.10757">
        <ele>95</ele>
        <time>2012-05-20T10:03:25Z</time>
      </trkpt>
      <trkpt lat="49.16762" lon="2.10758">
        <ele>95</ele>
        <time>2012-05-20T10:03:30Z</time>
      </trkpt>
      <trkpt lat="49.16749" lon="2.10758">
        <ele>95</ele>
        <time>2012-05-20T10:03:39Z</time>
      </trkpt>
      <trkpt lat="49.16744" lon="2.1076">
        <ele>95</ele>
        <time>2012-05-20T10:03:43Z</time>
      </trkpt>
      <trkpt lat="49.16729" lon="2.10763">
        <ele>96</ele>
        <time>2012-05-20T10:03:57Z</time>
      </trkpt>
      <trkpt lat="49.16711" lon="2.1077">
        <ele>95</ele>
        <time>2012-05-20T10:04:11Z</time>
      </trkpt>
      <trkpt lat="49.167" lon="2.10775">
        <ele>96</ele>
        <time>2012-05-20T10:04:20Z</time>
      </trkpt>
      <trkpt lat="49.16685" lon="2.1078">
        <ele>96</ele>
        <time>2012-05-20T10:04:34Z</time>
      </trkpt>
      <trkpt lat="49.16672" lon="2.10787">
        <ele>96</ele>
        <time>2012-05-20T10:04:46Z</time>
      </trkpt>
      <trkpt lat="49.16665" lon="2.10792">
        <ele>96</ele>
        <time>2012-05-20T10:04:52Z</time>
      </trkpt>
      <trkpt lat="49.16657" lon="2.10795">
        <ele>96</ele>
        <time>2012-05-20T10:05:00Z</time>
      </trkpt>
      <trkpt lat="49.16654" lon="2.10794">
        <ele>97</ele>
        <time>2012-05-20T10:05:02Z</time>
      </trkpt>
      <trkpt lat="49.16639" lon="2.10803">
        <ele>97</ele>
        <time>2012-05-20T10:05:15Z</time>
      </trkpt>
      <trkpt lat="49.16637" lon="2.10803">
        <ele>97</ele>
        <time>2012-05-20T10:05:17Z</time>
      </trkpt>
      <trkpt lat="49.16629" lon="2.1081">
        <ele>97</ele>
        <time>2012-05-20T10:05:24Z</time>
      </trkpt>
      <trkpt lat="49.16623" lon="2.1081">
        <ele>97</ele>
        <time>2012-05-20T10:05:28Z</time>
      </trkpt>
      <trkpt lat="49.16611" lon="2.10812">
        <ele>98</ele>
        <time>2012-05-20T10:05:37Z</time>
      </trkpt>
      <trkpt lat="49.16608" lon="2.10812">
        <ele>98</ele>
        <time>2012-05-20T10:05:39Z</time>
      </trkpt>
      <trkpt lat="49.16603" lon="2.10813">
        <ele>97</ele>
        <time>2012-05-20T10:05:42Z</time>
      </trkpt>
      <trkpt lat="49.16591" lon="2.10815">
        <ele>98</ele>
        <time>2012-05-20T10:05:52Z</time>
      </trkpt>
      <trkpt lat="49.16585" lon="2.10817">
        <ele>98</ele>
        <time>2012-05-20T10:05:57Z</time>
      </trkpt>
      <trkpt lat="49.16575" lon="2.10827">
        <ele>98</ele>
        <time>2012-05-20T10:06:06Z</time>
      </trkpt>
      <trkpt lat="49.16561" lon="2.10833">
        <ele>99</ele>
        <time>2012-05-20T10:06:17Z</time>
      </trkpt>
      <trkpt lat="49.16548" lon="2.10836">
        <ele>100</ele>
        <time>2012-05-20T10:06:29Z</time>
      </trkpt>
      <trkpt lat="49.1654" lon="2.10837">
        <ele>99</ele>
        <time>2012-05-20T10:06:36Z</time>
      </trkpt>
      <trkpt lat="49.16536" lon="2.10841">
        <ele>100</ele>
        <time>2012-05-20T10:06:39Z</time>
      </trkpt>
      <trkpt lat="49.16513" lon="2.10846">
        <ele>101</ele>
        <time>2012-05-20T10:06:57Z</time>
      </trkpt>
      <trkpt lat="49.16497" lon="2.10851">
        <ele>101</ele>
        <time>2012-05-20T10:07:11Z</time>
      </trkpt>
      <trkpt lat="49.16482" lon="2.10855">
        <ele>101</ele>
        <time>2012-05-20T10:07:25Z</time>
      </trkpt>
      <trkpt lat="49.16455" lon="2.10855">
        <ele>100</ele>
        <time>2012-05-20T10:07:46Z</time>
      </trkpt>
      <trkpt lat="49.16433" lon="2.1086">
        <ele>99</ele>
        <time>2012-05-20T10:08:05Z</time>
      </trkpt>
      <trkpt lat="49.16421" lon="2.10866">
        <ele>99</ele>
        <time>2012-05-20T10:08:14Z</time>
      </trkpt>
      <trkpt lat="49.16402" lon="2.10878">
        <ele>99</ele>
        <time>2012-05-20T10:08:29Z</time>
      </trkpt>
      <trkpt lat="49.16389" lon="2.1088">
        <ele>98</ele>
        <time>2012-05-20T10:08:42Z</time>
      </trkpt>
      <trkpt lat="49.16372" lon="2.10885">
        <ele>98</ele>
        <time>2012-05-20T10:08:55Z</time>
      </trkpt>
      <trkpt lat="49.16365" lon="2.10888">
        <ele>98</ele>
        <time>2012-05-20T10:09:00Z</time>
      </trkpt>
      <trkpt lat="49.16358" lon="2.10887">
        <ele>98</ele>
        <time>2012-05-20T10:09:07Z</time>
      </trkpt>
      <trkpt lat="49.16337" lon="2.10894">
        <ele>97</ele>
        <time>2012-05-20T10:09:23Z</time>
      </trkpt>
      <trkpt lat="49.16329" lon="2.10895">
        <ele>97</ele>
        <time>2012-05-20T10:09:29Z</time>
      </trkpt>
      <trkpt lat="49.16315" lon="2.10895">
        <ele>97</ele>
        <time>2012-05-20T10:09:40Z</time>
      </trkpt>
      <trkpt lat="49.1631" lon="2.10898">
        <ele>95</ele>
        <time>2012-05-20T10:09:45Z</time>
      </trkpt>
      <trkpt lat="49.16292" lon="2.10899">
        <ele>96</ele>
        <time>2012-05-20T10:09:59Z</time>
      </trkpt>
      <trkpt lat="49.1629" lon="2.109">
        <ele>96</ele>
        <time>2012-05-20T10:10:00Z</time>
      </trkpt>
      <trkpt lat="49.16281" lon="2.10903">
        <ele>96</ele>
        <time>2012-05-20T10:10:07Z</time>
      </trkpt>
      <trkpt lat="49.16276" lon="2.10902">
        <ele>95</ele>
        <time>2012-05-20T10:10:10Z</time>
      </trkpt>
      <trkpt lat="49.16274" lon="2.10904">
        <ele>96</ele>
        <time>2012-05-20T10:10:12Z</time>
      </trkpt>
      <trkpt lat="49.16261" lon="2.10907">
        <ele>95</ele>
        <time>2012-05-20T10:10:24Z</time>
      </trkpt>
      <trkpt lat="49.16242" lon="2.10906">
        <ele>94</ele>
        <time>2012-05-20T10:10:41Z</time>
      </trkpt>
      <trkpt lat="49.16236" lon="2.10906">
        <ele>94</ele>
        <time>2012-05-20T10:10:47Z</time>
      </trkpt>
      <trkpt lat="49.16204" lon="2.10907">
        <ele>93</ele>
        <time>2012-05-20T10:11:10Z</time>
      </trkpt>
      <trkpt lat="49.162" lon="2.10909">
        <ele>93</ele>
        <time>2012-05-20T10:11:14Z</time>
      </trkpt>
      <trkpt lat="49.16197" lon="2.10913">
        <ele>93</ele>
        <time>2012-05-20T10:11:17Z</time>
      </trkpt>
      <trkpt lat="49.1619" lon="2.10916">
        <ele>92</ele>
        <time>2012-05-20T10:11:22Z</time>
      </trkpt>
      <trkpt lat="49.16173" lon="2.1092">
        <ele>91</ele>
        <time>2012-05-20T10:11:35Z</time>
      </trkpt>
      <trkpt lat="49.1616" lon="2.10927">
        <ele>90</ele>
        <time>2012-05-20T10:11:54Z</time>
      </trkpt>
      <trkpt lat="49.16156" lon="2.10923">
        <ele>90</ele>
        <time>2012-05-20T10:11:57Z</time>
      </trkpt>
      <trkpt lat="49.16148" lon="2.10923">
        <ele>90</ele>
        <time>2012-05-20T10:12:02Z</time>
      </trkpt>
      <trkpt lat="49.16134" lon="2.1093">
        <ele>88</ele>
        <time>2012-05-20T10:12:15Z</time>
      </trkpt>
      <trkpt lat="49.16127" lon="2.10928">
        <ele>89</ele>
        <time>2012-05-20T10:12:18Z</time>
      </trkpt>
      <trkpt lat="49.16111" lon="2.10935">
        <ele>88</ele>
        <time>2012-05-20T10:12:32Z</time>
      </trkpt>
      <trkpt lat="49.16094" lon="2.1094">
        <ele>86</ele>
        <time>2012-05-20T10:12:45Z</time>
      </trkpt>
      <trkpt lat="49.16083" lon="2.10934">
        <ele>85</ele>
        <time>2012-05-20T10:12:52Z</time>
      </trkpt>
      <trkpt lat="49.16067" lon="2.10934">
        <ele>85</ele>
        <time>2012-05-20T10:13:04Z</time>
      </trkpt>
      <trkpt lat="49.16049" lon="2.10933">
        <ele>84</ele>
        <time>2012-05-20T10:13:18Z</time>
      </trkpt>
      <trkpt lat="49.16028" lon="2.10922">
        <ele>83</ele>
        <time>2012-05-20T10:13:35Z</time>
      </trkpt>
      <trkpt lat="49.16001" lon="2.10925">
        <ele>81</ele>
        <time>2012-05-20T10:13:58Z</time>
      </trkpt>
      <trkpt lat="49.15998" lon="2.10926">
        <ele>80</ele>
        <time>2012-05-20T10:14:01Z</time>
      </trkpt>
      <trkpt lat="49.15973" lon="2.10921">
        <ele>80</ele>
        <time>2012-05-20T10:14:24Z</time>
      </trkpt>
      <trkpt lat="49.15968" lon="2.10919">
        <ele>79</ele>
        <time>2012-05-20T10:14:29Z</time>
      </trkpt>
      <trkpt lat="49.1595" lon="2.10917">
        <ele>78</ele>
        <time>2012-05-20T10:14:43Z</time>
      </trkpt>
      <trkpt lat="49.15929" lon="2.10888">
        <ele>77</ele>
        <time>2012-05-20T10:15:07Z</time>
      </trkpt>
      <trkpt lat="49.15913" lon="2.10854">
        <ele>76</ele>
        <time>2012-05-20T10:15:29Z</time>
      </trkpt>
      <trkpt lat="49.15909" lon="2.10852">
        <ele>75</ele>
        <time>2012-05-20T10:15:50Z</time>
      </trkpt>
      <trkpt lat="49.15902" lon="2.10879">
        <ele>76</ele>
        <time>2012-05-20T10:16:20Z</time>
      </trkpt>
      <trkpt lat="49.15901" lon="2.1085">
        <ele>76</ele>
        <time>2012-05-20T10:16:54Z</time>
      </trkpt>
      <trkpt lat="49.15902" lon="2.10855">
        <ele>77</ele>
        <time>2012-05-20T10:18:14Z</time>
      </trkpt>
      <trkpt lat="49.15903" lon="2.10858">
        <ele>77</ele>
        <time>2012-05-20T10:21:28Z</time>
      </trkpt>
      <trkpt lat="49.15904" lon="2.10865">
        <ele>77</ele>
        <time>2012-05-20T10:22:44Z</time>
      </trkpt>
      <trkpt lat="49.15905" lon="2.10799">
        <ele>75</ele>
        <time>2012-05-20T10:30:11Z</time>
      </trkpt>
      <trkpt lat="49.15904" lon="2.10787">
        <ele>74</ele>
        <time>2012-05-20T10:30:18Z</time>
      </trkpt>
      <trkpt lat="49.15892" lon="2.10744">
        <ele>72</ele>
        <time>2012-05-20T10:30:49Z</time>
      </trkpt>
      <trkpt lat="49.15872" lon="2.10734">
        <ele>68</ele>
        <time>2012-05-20T10:31:10Z</time>
      </trkpt>
      <trkpt lat="49.15872" lon="2.10733">
        <ele>68</ele>
        <time>2012-05-20T10:31:11Z</time>
      </trkpt>
      <trkpt lat="49.15854" lon="2.10716">
        <ele>66</ele>
        <time>2012-05-20T10:31:28Z</time>
      </trkpt>
      <trkpt lat="49.15834" lon="2.10704">
        <ele>65</ele>
        <time>2012-05-20T10:31:47Z</time>
      </trkpt>
      <trkpt lat="49.1582" lon="2.10691">
        <ele>63</ele>
        <time>2012-05-20T10:32:08Z</time>
      </trkpt>
      <trkpt lat="49.15802" lon="2.10679">
        <ele>61</ele>
        <time>2012-05-20T10:32:26Z</time>
      </trkpt>
      <trkpt lat="49.15801" lon="2.10678">
        <ele>61</ele>
        <time>2012-05-20T10:32:27Z</time>
      </trkpt>
      <trkpt lat="49.15784" lon="2.10669">
        <ele>60</ele>
        <time>2012-05-20T10:32:45Z</time>
      </trkpt>
      <trkpt lat="49.1577" lon="2.10661">
        <ele>60</ele>
        <time>2012-05-20T10:32:58Z</time>
      </trkpt>
      <trkpt lat="49.15763" lon="2.10659">
        <ele>59</ele>
        <time>2012-05-20T10:33:03Z</time>
      </trkpt>
      <trkpt lat="49.15749" lon="2.10647">
        <ele>59</ele>
        <time>2012-05-20T10:33:16Z</time>
      </trkpt>
      <trkpt lat="49.15737" lon="2.1064">
        <ele>59</ele>
        <time>2012-05-20T10:33:29Z</time>
      </trkpt>
      <trkpt lat="49.15732" lon="2.10636">
        <ele>58</ele>
        <time>2012-05-20T10:33:35Z</time>
      </trkpt>
      <trkpt lat="49.15721" lon="2.10631">
        <ele>59</ele>
        <time>2012-05-20T10:33:44Z</time>
      </trkpt>
      <trkpt lat="49.15706" lon="2.10617">
        <ele>59</ele>
        <time>2012-05-20T10:33:59Z</time>
      </trkpt>
      <trkpt lat="49.15705" lon="2.10616">
        <ele>59</ele>
        <time>2012-05-20T10:34:00Z</time>
      </trkpt>
      <trkpt lat="49.15699" lon="2.10615">
        <ele>59</ele>
        <time>2012-05-20T10:34:04Z</time>
      </trkpt>
      <trkpt lat="49.15691" lon="2.10612">
        <ele>60</ele>
        <time>2012-05-20T10:34:12Z</time>
      </trkpt>
      <trkpt lat="49.15689" lon="2.10607">
        <ele>59</ele>
        <time>2012-05-20T10:34:15Z</time>
      </trkpt>
      <trkpt lat="49.15672" lon="2.10593">
        <ele>60</ele>
        <time>2012-05-20T10:34:29Z</time>
      </trkpt>
      <trkpt lat="49.15651" lon="2.10578">
        <ele>61</ele>
        <time>2012-05-20T10:34:50Z</time>
      </trkpt>
      <trkpt lat="49.15635" lon="2.10607">
        <ele>62</ele>
        <time>2012-05-20T10:35:15Z</time>
      </trkpt>
      <trkpt lat="49.15617" lon="2.10654">
        <ele>62</ele>
        <time>2012-05-20T10:35:47Z</time>
      </trkpt>
      <trkpt lat="49.15614" lon="2.10665">
        <ele>62</ele>
        <time>2012-05-20T10:35:53Z</time>
      </trkpt>
      <trkpt lat="49.15612" lon="2.10676">
        <ele>63</ele>
        <time>2012-05-20T10:35:58Z</time>
      </trkpt>
      <trkpt lat="49.15592" lon="2.10709">
        <ele>62</ele>
        <time>2012-05-20T10:36:25Z</time>
      </trkpt>
      <trkpt lat="49.15573" lon="2.10754">
        <ele>62</ele>
        <time>2012-05-20T10:36:56Z</time>
      </trkpt>
      <trkpt lat="49.15557" lon="2.10793">
        <ele>64</ele>
        <time>2012-05-20T10:37:20Z</time>
      </trkpt>
      <trkpt lat="49.15541" lon="2.1083">
        <ele>64</ele>
        <time>2012-05-20T10:37:42Z</time>
      </trkpt>
      <trkpt lat="49.15519" lon="2.10849">
        <ele>66</ele>
        <time>2012-05-20T10:38:08Z</time>
      </trkpt>
      <trkpt lat="49.15498" lon="2.10855">
        <ele>66</ele>
        <time>2012-05-20T10:38:28Z</time>
      </trkpt>
      <trkpt lat="49.15473" lon="2.10849">
        <ele>67</ele>
        <time>2012-05-20T10:38:48Z</time>
      </trkpt>
      <trkpt lat="49.15453" lon="2.1084">
        <ele>68</ele>
        <time>2012-05-20T10:39:11Z</time>
      </trkpt>
      <trkpt lat="49.15423" lon="2.10829">
        <ele>68</ele>
        <time>2012-05-20T10:39:38Z</time>
      </trkpt>
      <trkpt lat="49.15417" lon="2.10834">
        <ele>69</ele>
        <time>2012-05-20T10:40:01Z</time>
      </trkpt>
      <trkpt lat="49.15417" lon="2.10835">
        <ele>69</ele>
        <time>2012-05-20T10:40:09Z</time>
      </trkpt>
      <trkpt lat="49.15416" lon="2.10859">
        <ele>69</ele>
        <time>2012-05-20T10:40:32Z</time>
      </trkpt>
      <trkpt lat="49.15416" lon="2.10858">
        <ele>70</ele>
        <time>2012-05-20T10:40:45Z</time>
      </trkpt>
      <trkpt lat="49.15408" lon="2.10838">
        <ele>70</ele>
        <time>2012-05-20T10:41:02Z</time>
      </trkpt>
      <trkpt lat="49.15385" lon="2.10831">
        <ele>70</ele>
        <time>2012-05-20T10:41:24Z</time>
      </trkpt>
      <trkpt lat="49.15372" lon="2.10826">
        <ele>70</ele>
        <time>2012-05-20T10:41:37Z</time>
      </trkpt>
      <trkpt lat="49.15367" lon="2.1083">
        <ele>70</ele>
        <time>2012-05-20T10:41:41Z</time>
      </trkpt>
      <trkpt lat="49.15359" lon="2.10831">
        <ele>71</ele>
        <time>2012-05-20T10:41:54Z</time>
      </trkpt>
      <trkpt lat="49.15327" lon="2.10822">
        <ele>70</ele>
        <time>2012-05-20T10:42:22Z</time>
      </trkpt>
      <trkpt lat="49.15297" lon="2.10827">
        <ele>70</ele>
        <time>2012-05-20T10:42:47Z</time>
      </trkpt>
      <trkpt lat="49.15268" lon="2.10823">
        <ele>71</ele>
        <time>2012-05-20T10:43:15Z</time>
      </trkpt>
      <trkpt lat="49.15253" lon="2.1083">
        <ele>70</ele>
        <time>2012-05-20T10:43:34Z</time>
      </trkpt>
      <trkpt lat="49.15219" lon="2.10826">
        <ele>71</ele>
        <time>2012-05-20T10:44:04Z</time>
      </trkpt>
      <trkpt lat="49.15211" lon="2.10839">
        <ele>71</ele>
        <time>2012-05-20T10:44:13Z</time>
      </trkpt>
      <trkpt lat="49.15203" lon="2.10869">
        <ele>69</ele>
        <time>2012-05-20T10:44:27Z</time>
      </trkpt>
      <trkpt lat="49.15202" lon="2.10893">
        <ele>69</ele>
        <time>2012-05-20T10:44:48Z</time>
      </trkpt>
      <trkpt lat="49.15197" lon="2.10906">
        <ele>69</ele>
        <time>2012-05-20T10:45:08Z</time>
      </trkpt>
      <trkpt lat="49.15196" lon="2.10917">
        <ele>68</ele>
        <time>2012-05-20T10:45:50Z</time>
      </trkpt>
      <trkpt lat="49.15199" lon="2.10915">
        <ele>68</ele>
        <time>2012-05-20T10:46:04Z</time>
      </trkpt>
      <trkpt lat="49.15193" lon="2.1091">
        <ele>69</ele>
        <time>2012-05-20T10:46:25Z</time>
      </trkpt>
      <trkpt lat="49.15204" lon="2.10909">
        <ele>69</ele>
        <time>2012-05-20T10:47:31Z</time>
      </trkpt>
      <trkpt lat="49.15188" lon="2.10895">
        <ele>69</ele>
        <time>2012-05-20T10:48:13Z</time>
      </trkpt>
      <trkpt lat="49.15179" lon="2.10927">
        <ele>69</ele>
        <time>2012-05-20T10:48:49Z</time>
      </trkpt>
      <trkpt lat="49.15173" lon="2.10951">
        <ele>69</ele>
        <time>2012-05-20T10:49:14Z</time>
      </trkpt>
      <trkpt lat="49.15155" lon="2.10959">
        <ele>69</ele>
        <time>2012-05-20T10:49:31Z</time>
      </trkpt>
      <trkpt lat="49.1513" lon="2.10967">
        <ele>69</ele>
        <time>2012-05-20T10:49:52Z</time>
      </trkpt>
      <trkpt lat="49.15109" lon="2.10971">
        <ele>69</ele>
        <time>2012-05-20T10:50:10Z</time>
      </trkpt>
      <trkpt lat="49.15102" lon="2.10976">
        <ele>69</ele>
        <time>2012-05-20T10:50:15Z</time>
      </trkpt>
      <trkpt lat="49.15085" lon="2.10992">
        <ele>68</ele>
        <time>2012-05-20T10:50:30Z</time>
      </trkpt>
      <trkpt lat="49.15072" lon="2.11024">
        <ele>67</ele>
        <time>2012-05-20T10:50:50Z</time>
      </trkpt>
      <trkpt lat="49.15071" lon="2.11029">
        <ele>66</ele>
        <time>2012-05-20T10:50:52Z</time>
      </trkpt>
      <trkpt lat="49.15064" lon="2.11073">
        <ele>66</ele>
        <time>2012-05-20T10:51:07Z</time>
      </trkpt>
      <trkpt lat="49.15065" lon="2.11081">
        <ele>65</ele>
        <time>2012-05-20T10:51:13Z</time>
      </trkpt>
      <trkpt lat="49.1507" lon="2.1109">
        <ele>65</ele>
        <time>2012-05-20T10:51:19Z</time>
      </trkpt>
      <trkpt lat="49.15078" lon="2.11108">
        <ele>63</ele>
        <time>2012-05-20T10:51:32Z</time>
      </trkpt>
      <trkpt lat="49.15085" lon="2.11116">
        <ele>63</ele>
        <time>2012-05-20T10:51:38Z</time>
      </trkpt>
      <trkpt lat="49.15088" lon="2.11124">
        <ele>62</ele>
        <time>2012-05-20T10:51:43Z</time>
      </trkpt>
      <trkpt lat="49.15089" lon="2.1114">
        <ele>63</ele>
        <time>2012-05-20T10:51:52Z</time>
      </trkpt>
      <trkpt lat="49.15089" lon="2.11146">
        <ele>61</ele>
        <time>2012-05-20T10:51:55Z</time>
      </trkpt>
      <trkpt lat="49.15092" lon="2.11156">
        <ele>61</ele>
        <time>2012-05-20T10:52:02Z</time>
      </trkpt>
      <trkpt lat="49.15093" lon="2.11158">
        <ele>61</ele>
        <time>2012-05-20T10:52:04Z</time>
      </trkpt>
      <trkpt lat="49.15094" lon="2.11161">
        <ele>60</ele>
        <time>2012-05-20T10:52:06Z</time>
      </trkpt>
      <trkpt lat="49.15096" lon="2.11161">
        <ele>60</ele>
        <time>2012-05-20T10:52:08Z</time>
      </trkpt>
      <trkpt lat="49.15099" lon="2.11163">
        <ele>59</ele>
        <time>2012-05-20T10:52:11Z</time>
      </trkpt>
      <trkpt lat="49.15106" lon="2.11173">
        <ele>61</ele>
        <time>2012-05-20T10:52:19Z</time>
      </trkpt>
      <trkpt lat="49.15108" lon="2.11175">
        <ele>59</ele>
        <time>2012-05-20T10:52:22Z</time>
      </trkpt>
      <trkpt lat="49.1512" lon="2.1119">
        <ele>58</ele>
        <time>2012-05-20T10:52:40Z</time>
      </trkpt>
      <trkpt lat="49.15121" lon="2.11192">
        <ele>57</ele>
        <time>2012-05-20T10:52:42Z</time>
      </trkpt>
      <trkpt lat="49.15125" lon="2.1122">
        <ele>58</ele>
        <time>2012-05-20T10:52:59Z</time>
      </trkpt>
      <trkpt lat="49.15132" lon="2.11239">
        <ele>58</ele>
        <time>2012-05-20T10:53:16Z</time>
      </trkpt>
      <trkpt lat="49.15145" lon="2.1124">
        <ele>58</ele>
        <time>2012-05-20T10:53:53Z</time>
      </trkpt>
      <trkpt lat="49.15173" lon="2.11224">
        <ele>59</ele>
        <time>2012-05-20T10:54:21Z</time>
      </trkpt>
      <trkpt lat="49.15183" lon="2.11213">
        <ele>60</ele>
        <time>2012-05-20T10:54:29Z</time>
      </trkpt>
      <trkpt lat="49.15176" lon="2.11207">
        <ele>59</ele>
        <time>2012-05-20T10:54:53Z</time>
      </trkpt>
      <trkpt lat="49.15157" lon="2.11211">
        <ele>58</ele>
        <time>2012-05-20T10:55:14Z</time>
      </trkpt>
      <trkpt lat="49.1514" lon="2.11231">
        <ele>57</ele>
        <time>2012-05-20T10:55:36Z</time>
      </trkpt>
      <trkpt lat="49.15125" lon="2.1125">
        <ele>57</ele>
        <time>2012-05-20T10:55:58Z</time>
      </trkpt>
      <trkpt lat="49.15123" lon="2.11253">
        <ele>58</ele>
        <time>2012-05-20T10:56:00Z</time>
      </trkpt>
      <trkpt lat="49.1511" lon="2.1128">
        <ele>60</ele>
        <time>2012-05-20T10:56:18Z</time>
      </trkpt>
      <trkpt lat="49.15098" lon="2.11307">
        <ele>62</ele>
        <time>2012-05-20T10:56:38Z</time>
      </trkpt>
      <trkpt lat="49.15102" lon="2.11332">
        <ele>63</ele>
        <time>2012-05-20T10:56:50Z</time>
      </trkpt>
      <trkpt lat="49.15095" lon="2.11356">
        <ele>65</ele>
        <time>2012-05-20T10:57:05Z</time>
      </trkpt>
      <trkpt lat="49.15088" lon="2.11362">
        <ele>66</ele>
        <time>2012-05-20T10:57:13Z</time>
      </trkpt>
      <trkpt lat="49.15076" lon="2.11368">
        <ele>67</ele>
        <time>2012-05-20T10:57:25Z</time>
      </trkpt>
      <trkpt lat="49.15066" lon="2.11378">
        <ele>68</ele>
        <time>2012-05-20T10:57:40Z</time>
      </trkpt>
      <trkpt lat="49.15065" lon="2.114">
        <ele>69</ele>
        <time>2012-05-20T10:57:51Z</time>
      </trkpt>
      <trkpt lat="49.15067" lon="2.11427">
        <ele>71</ele>
        <time>2012-05-20T10:58:10Z</time>
      </trkpt>
      <trkpt lat="49.15065" lon="2.11462">
        <ele>71</ele>
        <time>2012-05-20T10:58:32Z</time>
      </trkpt>
      <trkpt lat="49.15064" lon="2.11463">
        <ele>71</ele>
        <time>2012-05-20T10:58:33Z</time>
      </trkpt>
      <trkpt lat="49.15061" lon="2.11479">
        <ele>71</ele>
        <time>2012-05-20T10:58:47Z</time>
      </trkpt>
      <trkpt lat="49.15047" lon="2.11476">
        <ele>71</ele>
        <time>2012-05-20T10:59:02Z</time>
      </trkpt>
      <trkpt lat="49.15028" lon="2.11473">
        <ele>72</ele>
        <time>2012-05-20T10:59:14Z</time>
      </trkpt>
      <trkpt lat="49.15021" lon="2.11473">
        <ele>72</ele>
        <time>2012-05-20T10:59:21Z</time>
      </trkpt>
      <trkpt lat="49.15007" lon="2.11471">
        <ele>74</ele>
        <time>2012-05-20T10:59:33Z</time>
      </trkpt>
      <trkpt lat="49.14994" lon="2.11476">
        <ele>74</ele>
        <time>2012-05-20T10:59:45Z</time>
      </trkpt>
      <trkpt lat="49.14982" lon="2.11488">
        <ele>76</ele>
        <time>2012-05-20T10:59:58Z</time>
      </trkpt>
      <trkpt lat="49.14971" lon="2.11499">
        <ele>77</ele>
        <time>2012-05-20T11:00:12Z</time>
      </trkpt>
      <trkpt lat="49.14963" lon="2.11516">
        <ele>78</ele>
        <time>2012-05-20T11:00:24Z</time>
      </trkpt>
      <trkpt lat="49.14955" lon="2.11543">
        <ele>80</ele>
        <time>2012-05-20T11:00:43Z</time>
      </trkpt>
      <trkpt lat="49.14949" lon="2.11586">
        <ele>83</ele>
        <time>2012-05-20T11:01:06Z</time>
      </trkpt>
      <trkpt lat="49.14949" lon="2.11631">
        <ele>85</ele>
        <time>2012-05-20T11:01:33Z</time>
      </trkpt>
      <trkpt lat="49.14948" lon="2.11673">
        <ele>86</ele>
        <time>2012-05-20T11:01:57Z</time>
      </trkpt>
      <trkpt lat="49.14947" lon="2.11688">
        <ele>87</ele>
        <time>2012-05-20T11:02:17Z</time>
      </trkpt>
      <trkpt lat="49.14946" lon="2.11686">
        <ele>87</ele>
        <time>2012-05-20T11:02:19Z</time>
      </trkpt>
      <trkpt lat="49.14949" lon="2.11675">
        <ele>87</ele>
        <time>2012-05-20T11:02:38Z</time>
      </trkpt>
      <trkpt lat="49.14948" lon="2.11675">
        <ele>86</ele>
        <time>2012-05-20T11:03:19Z</time>
      </trkpt>
      <trkpt lat="49.14949" lon="2.11686">
        <ele>86</ele>
        <time>2012-05-20T11:05:21Z</time>
      </trkpt>
      <trkpt lat="49.14942" lon="2.11721">
        <ele>88</ele>
        <time>2012-05-20T11:05:42Z</time>
      </trkpt>
      <trkpt lat="49.14934" lon="2.11766">
        <ele>90</ele>
        <time>2012-05-20T11:06:04Z</time>
      </trkpt>
      <trkpt lat="49.14924" lon="2.11798">
        <ele>91</ele>
        <time>2012-05-20T11:06:27Z</time>
      </trkpt>
      <trkpt lat="49.14924" lon="2.11801">
        <ele>92</ele>
        <time>2012-05-20T11:06:29Z</time>
      </trkpt>
      <trkpt lat="49.14919" lon="2.11821">
        <ele>92</ele>
        <time>2012-05-20T11:06:41Z</time>
      </trkpt>
      <trkpt lat="49.14909" lon="2.1186">
        <ele>92</ele>
        <time>2012-05-20T11:07:03Z</time>
      </trkpt>
      <trkpt lat="49.14901" lon="2.11905">
        <ele>92</ele>
        <time>2012-05-20T11:07:26Z</time>
      </trkpt>
      <trkpt lat="49.14897" lon="2.11942">
        <ele>92</ele>
        <time>2012-05-20T11:07:48Z</time>
      </trkpt>
      <trkpt lat="49.14894" lon="2.1198">
        <ele>93</ele>
        <time>2012-05-20T11:08:07Z</time>
      </trkpt>
      <trkpt lat="49.14891" lon="2.1201">
        <ele>93</ele>
        <time>2012-05-20T11:08:22Z</time>
      </trkpt>
      <trkpt lat="49.14885" lon="2.12034">
        <ele>94</ele>
        <time>2012-05-20T11:08:36Z</time>
      </trkpt>
      <trkpt lat="49.14884" lon="2.12053">
        <ele>94</ele>
        <time>2012-05-20T11:08:49Z</time>
      </trkpt>
      <trkpt lat="49.14877" lon="2.12081">
        <ele>94</ele>
        <time>2012-05-20T11:09:08Z</time>
      </trkpt>
      <trkpt lat="49.14875" lon="2.12084">
        <ele>94</ele>
        <time>2012-05-20T11:09:10Z</time>
      </trkpt>
      <trkpt lat="49.14875" lon="2.12103">
        <ele>95</ele>
        <time>2012-05-20T11:09:16Z</time>
      </trkpt>
      <trkpt lat="49.14872" lon="2.12128">
        <ele>95</ele>
        <time>2012-05-20T11:09:32Z</time>
      </trkpt>
      <trkpt lat="49.14864" lon="2.12164">
        <ele>95</ele>
        <time>2012-05-20T11:09:53Z</time>
      </trkpt>
      <trkpt lat="49.14854" lon="2.12199">
        <ele>95</ele>
        <time>2012-05-20T11:10:09Z</time>
      </trkpt>
      <trkpt lat="49.14848" lon="2.12222">
        <ele>95</ele>
        <time>2012-05-20T11:10:23Z</time>
      </trkpt>
      <trkpt lat="49.1484" lon="2.12253">
        <ele>95</ele>
        <time>2012-05-20T11:10:39Z</time>
      </trkpt>
      <trkpt lat="49.1482" lon="2.12298">
        <ele>95</ele>
        <time>2012-05-20T11:11:05Z</time>
      </trkpt>
      <trkpt lat="49.14808" lon="2.12327">
        <ele>94</ele>
        <time>2012-05-20T11:11:23Z</time>
      </trkpt>
      <trkpt lat="49.14802" lon="2.12356">
        <ele>93</ele>
        <time>2012-05-20T11:11:38Z</time>
      </trkpt>
      <trkpt lat="49.14792" lon="2.12392">
        <ele>93</ele>
        <time>2012-05-20T11:11:58Z</time>
      </trkpt>
      <trkpt lat="49.14786" lon="2.12414">
        <ele>92</ele>
        <time>2012-05-20T11:12:12Z</time>
      </trkpt>
      <trkpt lat="49.14776" lon="2.12437">
        <ele>93</ele>
        <time>2012-05-20T11:12:26Z</time>
      </trkpt>
      <trkpt lat="49.14766" lon="2.12469">
        <ele>92</ele>
        <time>2012-05-20T11:12:45Z</time>
      </trkpt>
      <trkpt lat="49.14757" lon="2.12506">
        <ele>91</ele>
        <time>2012-05-20T11:13:05Z</time>
      </trkpt>
      <trkpt lat="49.14757" lon="2.12507">
        <ele>91</ele>
        <time>2012-05-20T11:13:06Z</time>
      </trkpt>
      <trkpt lat="49.14757" lon="2.1251">
        <ele>92</ele>
        <time>2012-05-20T11:13:08Z</time>
      </trkpt>
      <trkpt lat="49.14752" lon="2.12544">
        <ele>92</ele>
        <time>2012-05-20T11:13:27Z</time>
      </trkpt>
      <trkpt lat="49.14745" lon="2.12564">
        <ele>92</ele>
        <time>2012-05-20T11:13:42Z</time>
      </trkpt>
      <trkpt lat="49.14748" lon="2.12588">
        <ele>92</ele>
        <time>2012-05-20T11:13:56Z</time>
      </trkpt>
      <trkpt lat="49.14755" lon="2.126">
        <ele>92</ele>
        <time>2012-05-20T11:14:07Z</time>
      </trkpt>
      <trkpt lat="49.1476" lon="2.12614">
        <ele>92</ele>
        <time>2012-05-20T11:14:16Z</time>
      </trkpt>
      <trkpt lat="49.14761" lon="2.1262">
        <ele>93</ele>
        <time>2012-05-20T11:14:19Z</time>
      </trkpt>
      <trkpt lat="49.14762" lon="2.12623">
        <ele>92</ele>
        <time>2012-05-20T11:14:21Z</time>
      </trkpt>
      <trkpt lat="49.14767" lon="2.12639">
        <ele>93</ele>
        <time>2012-05-20T11:14:32Z</time>
      </trkpt>
      <trkpt lat="49.14773" lon="2.12659">
        <ele>94</ele>
        <time>2012-05-20T11:14:43Z</time>
      </trkpt>
      <trkpt lat="49.14777" lon="2.12684">
        <ele>94</ele>
        <time>2012-05-20T11:14:56Z</time>
      </trkpt>
      <trkpt lat="49.1478" lon="2.12691">
        <ele>94</ele>
        <time>2012-05-20T11:15:01Z</time>
      </trkpt>
      <trkpt lat="49.14781" lon="2.12704">
        <ele>94</ele>
        <time>2012-05-20T11:15:06Z</time>
      </trkpt>
      <trkpt lat="49.14785" lon="2.12716">
        <ele>94</ele>
        <time>2012-05-20T11:15:14Z</time>
      </trkpt>
      <trkpt lat="49.14797" lon="2.12738">
        <ele>96</ele>
        <time>2012-05-20T11:15:27Z</time>
      </trkpt>
      <trkpt lat="49.14802" lon="2.1276">
        <ele>96</ele>
        <time>2012-05-20T11:15:39Z</time>
      </trkpt>
      <trkpt lat="49.14814" lon="2.1278">
        <ele>96</ele>
        <time>2012-05-20T11:15:55Z</time>
      </trkpt>
      <trkpt lat="49.14819" lon="2.12803">
        <ele>97</ele>
        <time>2012-05-20T11:16:08Z</time>
      </trkpt>
      <trkpt lat="49.14826" lon="2.12824">
        <ele>97</ele>
        <time>2012-05-20T11:16:20Z</time>
      </trkpt>
      <trkpt lat="49.14836" lon="2.12848">
        <ele>97</ele>
        <time>2012-05-20T11:16:35Z</time>
      </trkpt>
      <trkpt lat="49.14838" lon="2.1285">
        <ele>97</ele>
        <time>2012-05-20T11:16:37Z</time>
      </trkpt>
      <trkpt lat="49.14841" lon="2.12865">
        <ele>98</ele>
        <time>2012-05-20T11:16:44Z</time>
      </trkpt>
      <trkpt lat="49.14842" lon="2.12873">
        <ele>98</ele>
        <time>2012-05-20T11:16:49Z</time>
      </trkpt>
      <trkpt lat="49.14844" lon="2.12879">
        <ele>98</ele>
        <time>2012-05-20T11:16:52Z</time>
      </trkpt>
      <trkpt lat="49.14847" lon="2.12889">
        <ele>97</ele>
        <time>2012-05-20T11:16:58Z</time>
      </trkpt>
      <trkpt lat="49.14848" lon="2.12895">
        <ele>99</ele>
        <time>2012-05-20T11:17:01Z</time>
      </trkpt>
      <trkpt lat="49.14857" lon="2.12919">
        <ele>98</ele>
        <time>2012-05-20T11:17:15Z</time>
      </trkpt>
      <trkpt lat="49.14858" lon="2.12932">
        <ele>98</ele>
        <time>2012-05-20T11:17:21Z</time>
      </trkpt>
      <trkpt lat="49.14859" lon="2.12941">
        <ele>98</ele>
        <time>2012-05-20T11:17:26Z</time>
      </trkpt>
      <trkpt lat="49.14863" lon="2.12964">
        <ele>99</ele>
        <time>2012-05-20T11:17:39Z</time>
      </trkpt>
      <trkpt lat="49.14873" lon="2.12993">
        <ele>101</ele>
        <time>2012-05-20T11:17:57Z</time>
      </trkpt>
      <trkpt lat="49.14873" lon="2.12998">
        <ele>100</ele>
        <time>2012-05-20T11:17:59Z</time>
      </trkpt>
      <trkpt lat="49.14878" lon="2.13029">
        <ele>100</ele>
        <time>2012-05-20T11:18:16Z</time>
      </trkpt>
      <trkpt lat="49.14888" lon="2.13056">
        <ele>100</ele>
        <time>2012-05-20T11:18:32Z</time>
      </trkpt>
      <trkpt lat="49.14896" lon="2.13081">
        <ele>101</ele>
        <time>2012-05-20T11:18:47Z</time>
      </trkpt>
      <trkpt lat="49.14904" lon="2.13106">
        <ele>101</ele>
        <time>2012-05-20T11:19:03Z</time>
      </trkpt>
      <trkpt lat="49.14914" lon="2.13133">
        <ele>100</ele>
        <time>2012-05-20T11:19:19Z</time>
      </trkpt>
      <trkpt lat="49.14921" lon="2.13164">
        <ele>101</ele>
        <time>2012-05-20T11:19:35Z</time>
      </trkpt>
      <trkpt lat="49.14922" lon="2.13171">
        <ele>101</ele>
        <time>2012-05-20T11:19:40Z</time>
      </trkpt>
      <trkpt lat="49.14929" lon="2.13199">
        <ele>101</ele>
        <time>2012-05-20T11:19:56Z</time>
      </trkpt>
      <trkpt lat="49.14937" lon="2.13226">
        <ele>102</ele>
        <time>2012-05-20T11:20:11Z</time>
      </trkpt>
      <trkpt lat="49.14945" lon="2.13251">
        <ele>102</ele>
        <time>2012-05-20T11:20:26Z</time>
      </trkpt>
      <trkpt lat="49.14949" lon="2.13262">
        <ele>103</ele>
        <time>2012-05-20T11:20:33Z</time>
      </trkpt>
      <trkpt lat="49.1495" lon="2.13268">
        <ele>102</ele>
        <time>2012-05-20T11:20:36Z</time>
      </trkpt>
      <trkpt lat="49.14955" lon="2.13291">
        <ele>102</ele>
        <time>2012-05-20T11:20:48Z</time>
      </trkpt>
      <trkpt lat="49.14957" lon="2.13297">
        <ele>102</ele>
        <time>2012-05-20T11:20:51Z</time>
      </trkpt>
      <trkpt lat="49.14967" lon="2.13326">
        <ele>102</ele>
        <time>2012-05-20T11:21:07Z</time>
      </trkpt>
      <trkpt lat="49.14972" lon="2.1334">
        <ele>102</ele>
        <time>2012-05-20T11:21:15Z</time>
      </trkpt>
      <trkpt lat="49.14977" lon="2.13365">
        <ele>103</ele>
        <time>2012-05-20T11:21:28Z</time>
      </trkpt>
      <trkpt lat="49.14983" lon="2.13393">
        <ele>102</ele>
        <time>2012-05-20T11:21:42Z</time>
      </trkpt>
      <trkpt lat="49.14984" lon="2.13403">
        <ele>102</ele>
        <time>2012-05-20T11:21:47Z</time>
      </trkpt>
      <trkpt lat="49.1499" lon="2.13431">
        <ele>101</ele>
        <time>2012-05-20T11:22:02Z</time>
      </trkpt>
      <trkpt lat="49.14996" lon="2.13454">
        <ele>101</ele>
        <time>2012-05-20T11:22:15Z</time>
      </trkpt>
      <trkpt lat="49.14995" lon="2.1347">
        <ele>101</ele>
        <time>2012-05-20T11:22:24Z</time>
      </trkpt>
      <trkpt lat="49.14998" lon="2.13473">
        <ele>101</ele>
        <time>2012-05-20T11:22:36Z</time>
      </trkpt>
      <trkpt lat="49.14998" lon="2.13476">
        <ele>101</ele>
        <time>2012-05-20T11:22:37Z</time>
      </trkpt>
      <trkpt lat="49.14999" lon="2.13492">
        <ele>100</ele>
        <time>2012-05-20T11:22:45Z</time>
      </trkpt>
      <trkpt lat="49.15" lon="2.13497">
        <ele>100</ele>
        <time>2012-05-20T11:22:48Z</time>
      </trkpt>
      <trkpt lat="49.15002" lon="2.13505">
        <ele>100</ele>
        <time>2012-05-20T11:22:53Z</time>
      </trkpt>
      <trkpt lat="49.15003" lon="2.13514">
        <ele>100</ele>
        <time>2012-05-20T11:22:58Z</time>
      </trkpt>
      <trkpt lat="49.15004" lon="2.13531">
        <ele>99</ele>
        <time>2012-05-20T11:23:12Z</time>
      </trkpt>
      <trkpt lat="49.14996" lon="2.13535">
        <ele>99</ele>
        <time>2012-05-20T11:23:28Z</time>
      </trkpt>
      <trkpt lat="49.14992" lon="2.13539">
        <ele>99</ele>
        <time>2012-05-20T11:23:31Z</time>
      </trkpt>
      <trkpt lat="49.14968" lon="2.13547">
        <ele>99</ele>
        <time>2012-05-20T11:23:49Z</time>
      </trkpt>
      <trkpt lat="49.14962" lon="2.1355">
        <ele>99</ele>
        <time>2012-05-20T11:23:54Z</time>
      </trkpt>
      <trkpt lat="49.14942" lon="2.13563">
        <ele>99</ele>
        <time>2012-05-20T11:24:11Z</time>
      </trkpt>
      <trkpt lat="49.14932" lon="2.1357">
        <ele>98</ele>
        <time>2012-05-20T11:24:22Z</time>
      </trkpt>
      <trkpt lat="49.14915" lon="2.1358">
        <ele>98</ele>
        <time>2012-05-20T11:24:37Z</time>
      </trkpt>
      <trkpt lat="49.149" lon="2.13585">
        <ele>98</ele>
        <time>2012-05-20T11:24:49Z</time>
      </trkpt>
      <trkpt lat="49.14888" lon="2.13592">
        <ele>97</ele>
        <time>2012-05-20T11:25:04Z</time>
      </trkpt>
      <trkpt lat="49.1487" lon="2.13595">
        <ele>96</ele>
        <time>2012-05-20T11:25:21Z</time>
      </trkpt>
      <trkpt lat="49.14849" lon="2.13598">
        <ele>96</ele>
        <time>2012-05-20T11:25:40Z</time>
      </trkpt>
      <trkpt lat="49.14829" lon="2.13613">
        <ele>95</ele>
        <time>2012-05-20T11:26:04Z</time>
      </trkpt>
      <trkpt lat="49.14814" lon="2.13623">
        <ele>94</ele>
        <time>2012-05-20T11:26:21Z</time>
      </trkpt>
      <trkpt lat="49.14805" lon="2.1363">
        <ele>95</ele>
        <time>2012-05-20T11:26:28Z</time>
      </trkpt>
      <trkpt lat="49.14801" lon="2.13632">
        <ele>94</ele>
        <time>2012-05-20T11:26:32Z</time>
      </trkpt>
      <trkpt lat="49.14789" lon="2.13639">
        <ele>94</ele>
        <time>2012-05-20T11:26:43Z</time>
      </trkpt>
      <trkpt lat="49.14783" lon="2.13642">
        <ele>94</ele>
        <time>2012-05-20T11:26:51Z</time>
      </trkpt>
      <trkpt lat="49.14773" lon="2.13646">
        <ele>94</ele>
        <time>2012-05-20T11:27:00Z</time>
      </trkpt>
      <trkpt lat="49.14751" lon="2.13654">
        <ele>94</ele>
        <time>2012-05-20T11:27:18Z</time>
      </trkpt>
      <trkpt lat="49.14741" lon="2.13662">
        <ele>93</ele>
        <time>2012-05-20T11:27:30Z</time>
      </trkpt>
      <trkpt lat="49.14735" lon="2.1367">
        <ele>93</ele>
        <time>2012-05-20T11:27:38Z</time>
      </trkpt>
      <trkpt lat="49.14718" lon="2.1368">
        <ele>93</ele>
        <time>2012-05-20T11:27:55Z</time>
      </trkpt>
      <trkpt lat="49.14699" lon="2.13687">
        <ele>93</ele>
        <time>2012-05-20T11:28:12Z</time>
      </trkpt>
      <trkpt lat="49.1469" lon="2.13687">
        <ele>93</ele>
        <time>2012-05-20T11:28:22Z</time>
      </trkpt>
      <trkpt lat="49.14674" lon="2.13694">
        <ele>92</ele>
        <time>2012-05-20T11:28:38Z</time>
      </trkpt>
      <trkpt lat="49.14652" lon="2.13682">
        <ele>93</ele>
        <time>2012-05-20T11:28:50Z</time>
      </trkpt>
      <trkpt lat="49.14636" lon="2.13697">
        <ele>92</ele>
        <time>2012-05-20T11:29:02Z</time>
      </trkpt>
      <trkpt lat="49.14609" lon="2.13705">
        <ele>92</ele>
        <time>2012-05-20T11:29:29Z</time>
      </trkpt>
      <trkpt lat="49.14577" lon="2.13702">
        <ele>91</ele>
        <time>2012-05-20T11:29:55Z</time>
      </trkpt>
      <trkpt lat="49.14555" lon="2.1371">
        <ele>91</ele>
        <time>2012-05-20T11:30:14Z</time>
      </trkpt>
      <trkpt lat="49.14536" lon="2.13709">
        <ele>90</ele>
        <time>2012-05-20T11:30:34Z</time>
      </trkpt>
      <trkpt lat="49.14516" lon="2.13706">
        <ele>89</ele>
        <time>2012-05-20T11:30:51Z</time>
      </trkpt>
      <trkpt lat="49.14497" lon="2.13697">
        <ele>89</ele>
        <time>2012-05-20T11:31:07Z</time>
      </trkpt>
      <trkpt lat="49.1448" lon="2.1369">
        <ele>88</ele>
        <time>2012-05-20T11:31:24Z</time>
      </trkpt>
      <trkpt lat="49.14462" lon="2.13681">
        <ele>88</ele>
        <time>2012-05-20T11:31:38Z</time>
      </trkpt>
      <trkpt lat="49.14456" lon="2.13676">
        <ele>88</ele>
        <time>2012-05-20T11:31:45Z</time>
      </trkpt>
      <trkpt lat="49.14448" lon="2.13672">
        <ele>88</ele>
        <time>2012-05-20T11:31:53Z</time>
      </trkpt>
      <trkpt lat="49.14442" lon="2.13667">
        <ele>88</ele>
        <time>2012-05-20T11:31:59Z</time>
      </trkpt>
      <trkpt lat="49.14423" lon="2.13665">
        <ele>89</ele>
        <time>2012-05-20T11:32:15Z</time>
      </trkpt>
      <trkpt lat="49.14412" lon="2.1367">
        <ele>89</ele>
        <time>2012-05-20T11:32:25Z</time>
      </trkpt>
      <trkpt lat="49.14398" lon="2.13688">
        <ele>89</ele>
        <time>2012-05-20T11:32:40Z</time>
      </trkpt>
      <trkpt lat="49.14384" lon="2.137">
        <ele>89</ele>
        <time>2012-05-20T11:32:57Z</time>
      </trkpt>
      <trkpt lat="49.14365" lon="2.13716">
        <ele>89</ele>
        <time>2012-05-20T11:33:12Z</time>
      </trkpt>
      <trkpt lat="49.14349" lon="2.13733">
        <ele>89</ele>
        <time>2012-05-20T11:33:27Z</time>
      </trkpt>
      <trkpt lat="49.14345" lon="2.13737">
        <ele>89</ele>
        <time>2012-05-20T11:33:30Z</time>
      </trkpt>
      <trkpt lat="49.14336" lon="2.13738">
        <ele>90</ele>
        <time>2012-05-20T11:33:40Z</time>
      </trkpt>
      <trkpt lat="49.14325" lon="2.13756">
        <ele>90</ele>
        <time>2012-05-20T11:33:53Z</time>
      </trkpt>
      <trkpt lat="49.14323" lon="2.13757">
        <ele>89</ele>
        <time>2012-05-20T11:33:55Z</time>
      </trkpt>
      <trkpt lat="49.14305" lon="2.13778">
        <ele>90</ele>
        <time>2012-05-20T11:34:10Z</time>
      </trkpt>
      <trkpt lat="49.14293" lon="2.1379">
        <ele>90</ele>
        <time>2012-05-20T11:34:22Z</time>
      </trkpt>
      <trkpt lat="49.14288" lon="2.13794">
        <ele>89</ele>
        <time>2012-05-20T11:34:28Z</time>
      </trkpt>
      <trkpt lat="49.1428" lon="2.13805">
        <ele>90</ele>
        <time>2012-05-20T11:34:36Z</time>
      </trkpt>
      <trkpt lat="49.14267" lon="2.1382">
        <ele>90</ele>
        <time>2012-05-20T11:34:50Z</time>
      </trkpt>
      <trkpt lat="49.1426" lon="2.13829">
        <ele>90</ele>
        <time>2012-05-20T11:34:56Z</time>
      </trkpt>
      <trkpt lat="49.14244" lon="2.13847">
        <ele>90</ele>
        <time>2012-05-20T11:35:11Z</time>
      </trkpt>
      <trkpt lat="49.14233" lon="2.13864">
        <ele>90</ele>
        <time>2012-05-20T11:35:24Z</time>
      </trkpt>
      <trkpt lat="49.14225" lon="2.1388">
        <ele>90</ele>
        <time>2012-05-20T11:35:40Z</time>
      </trkpt>
      <trkpt lat="49.14208" lon="2.13905">
        <ele>89</ele>
        <time>2012-05-20T11:38:21Z</time>
      </trkpt>
      <trkpt lat="49.14197" lon="2.13923">
        <ele>88</ele>
        <time>2012-05-20T11:38:34Z</time>
      </trkpt>
      <trkpt lat="49.14189" lon="2.1394">
        <ele>88</ele>
        <time>2012-05-20T11:38:47Z</time>
      </trkpt>
      <trkpt lat="49.14183" lon="2.13956">
        <ele>88</ele>
        <time>2012-05-20T11:38:58Z</time>
      </trkpt>
      <trkpt lat="49.14167" lon="2.1398">
        <ele>87</ele>
        <time>2012-05-20T11:39:14Z</time>
      </trkpt>
      <trkpt lat="49.14157" lon="2.13999">
        <ele>86</ele>
        <time>2012-05-20T11:39:26Z</time>
      </trkpt>
      <trkpt lat="49.14146" lon="2.14014">
        <ele>85</ele>
        <time>2012-05-20T11:39:38Z</time>
      </trkpt>
      <trkpt lat="49.14141" lon="2.14038">
        <ele>85</ele>
        <time>2012-05-20T11:39:52Z</time>
      </trkpt>
      <trkpt lat="49.14146" lon="2.14054">
        <ele>84</ele>
        <time>2012-05-20T11:40:06Z</time>
      </trkpt>
      <trkpt lat="49.14153" lon="2.14089">
        <ele>84</ele>
        <time>2012-05-20T11:40:25Z</time>
      </trkpt>
      <trkpt lat="49.14155" lon="2.14101">
        <ele>83</ele>
        <time>2012-05-20T11:40:30Z</time>
      </trkpt>
      <trkpt lat="49.14158" lon="2.14115">
        <ele>84</ele>
        <time>2012-05-20T11:40:39Z</time>
      </trkpt>
      <trkpt lat="49.14164" lon="2.14138">
        <ele>83</ele>
        <time>2012-05-20T11:40:53Z</time>
      </trkpt>
      <trkpt lat="49.14167" lon="2.14145">
        <ele>83</ele>
        <time>2012-05-20T11:40:58Z</time>
      </trkpt>
      <trkpt lat="49.14172" lon="2.1417">
        <ele>82</ele>
        <time>2012-05-20T11:41:13Z</time>
      </trkpt>
      <trkpt lat="49.14176" lon="2.14185">
        <ele>82</ele>
        <time>2012-05-20T11:41:23Z</time>
      </trkpt>
      <trkpt lat="49.14191" lon="2.14229">
        <ele>81</ele>
        <time>2012-05-20T11:41:46Z</time>
      </trkpt>
      <trkpt lat="49.14195" lon="2.14246">
        <ele>80</ele>
        <time>2012-05-20T11:41:54Z</time>
      </trkpt>
      <trkpt lat="49.14197" lon="2.1428">
        <ele>79</ele>
        <time>2012-05-20T11:42:10Z</time>
      </trkpt>
      <trkpt lat="49.14197" lon="2.14283">
        <ele>79</ele>
        <time>2012-05-20T11:42:11Z</time>
      </trkpt>
      <trkpt lat="49.14203" lon="2.14307">
        <ele>78</ele>
        <time>2012-05-20T11:42:27Z</time>
      </trkpt>
      <trkpt lat="49.14214" lon="2.14342">
        <ele>77</ele>
        <time>2012-05-20T11:42:46Z</time>
      </trkpt>
      <trkpt lat="49.14217" lon="2.14347">
        <ele>77</ele>
        <time>2012-05-20T11:42:49Z</time>
      </trkpt>
      <trkpt lat="49.14217" lon="2.14351">
        <ele>75</ele>
        <time>2012-05-20T11:42:51Z</time>
      </trkpt>
      <trkpt lat="49.14218" lon="2.14353">
        <ele>76</ele>
        <time>2012-05-20T11:42:52Z</time>
      </trkpt>
      <trkpt lat="49.14217" lon="2.14359">
        <ele>76</ele>
        <time>2012-05-20T11:42:55Z</time>
      </trkpt>
      <trkpt lat="49.14215" lon="2.14368">
        <ele>75</ele>
        <time>2012-05-20T11:43:00Z</time>
      </trkpt>
      <trkpt lat="49.14212" lon="2.14393">
        <ele>74</ele>
        <time>2012-05-20T11:43:11Z</time>
      </trkpt>
      <trkpt lat="49.14205" lon="2.14421">
        <ele>73</ele>
        <time>2012-05-20T11:43:25Z</time>
      </trkpt>
      <trkpt lat="49.14197" lon="2.14441">
        <ele>73</ele>
        <time>2012-05-20T11:43:39Z</time>
      </trkpt>
      <trkpt lat="49.1419" lon="2.1447">
        <ele>71</ele>
        <time>2012-05-20T11:43:54Z</time>
      </trkpt>
      <trkpt lat="49.14183" lon="2.14514">
        <ele>69</ele>
        <time>2012-05-20T11:44:18Z</time>
      </trkpt>
      <trkpt lat="49.14163" lon="2.14533">
        <ele>67</ele>
        <time>2012-05-20T11:44:35Z</time>
      </trkpt>
      <trkpt lat="49.14164" lon="2.14543">
        <ele>68</ele>
        <time>2012-05-20T11:44:52Z</time>
      </trkpt>
      <trkpt lat="49.14167" lon="2.14545">
        <ele>67</ele>
        <time>2012-05-20T11:45:09Z</time>
      </trkpt>
      <trkpt lat="49.14167" lon="2.14538">
        <ele>67</ele>
        <time>2012-05-20T11:45:25Z</time>
      </trkpt>
      <trkpt lat="49.14169" lon="2.14537">
        <ele>67</ele>
        <time>2012-05-20T11:45:28Z</time>
      </trkpt>
      <trkpt lat="49.14176" lon="2.14532">
        <ele>66</ele>
        <time>2012-05-20T11:45:38Z</time>
      </trkpt>
      <trkpt lat="49.14188" lon="2.14532">
        <ele>65</ele>
        <time>2012-05-20T11:45:51Z</time>
      </trkpt>
      <trkpt lat="49.142" lon="2.14525">
        <ele>63</ele>
        <time>2012-05-20T11:46:09Z</time>
      </trkpt>
      <trkpt lat="49.14219" lon="2.14522">
        <ele>61</ele>
        <time>2012-05-20T11:46:25Z</time>
      </trkpt>
      <trkpt lat="49.14237" lon="2.14523">
        <ele>58</ele>
        <time>2012-05-20T11:46:40Z</time>
      </trkpt>
      <trkpt lat="49.14253" lon="2.14518">
        <ele>57</ele>
        <time>2012-05-20T11:46:51Z</time>
      </trkpt>
      <trkpt lat="49.14265" lon="2.14502">
        <ele>57</ele>
        <time>2012-05-20T11:47:01Z</time>
      </trkpt>
      <trkpt lat="49.1428" lon="2.14494">
        <ele>55</ele>
        <time>2012-05-20T11:47:17Z</time>
      </trkpt>
      <trkpt lat="49.14296" lon="2.14482">
        <ele>54</ele>
        <time>2012-05-20T11:47:31Z</time>
      </trkpt>
      <trkpt lat="49.1431" lon="2.14471">
        <ele>53</ele>
        <time>2012-05-20T11:47:48Z</time>
      </trkpt>
      <trkpt lat="49.14332" lon="2.14461">
        <ele>52</ele>
        <time>2012-05-20T11:48:03Z</time>
      </trkpt>
      <trkpt lat="49.14333" lon="2.1446">
        <ele>53</ele>
        <time>2012-05-20T11:48:04Z</time>
      </trkpt>
      <trkpt lat="49.14339" lon="2.14453">
        <ele>52</ele>
        <time>2012-05-20T11:48:08Z</time>
      </trkpt>
      <trkpt lat="49.14368" lon="2.14444">
        <ele>52</ele>
        <time>2012-05-20T11:48:23Z</time>
      </trkpt>
      <trkpt lat="49.14388" lon="2.14453">
        <ele>52</ele>
        <time>2012-05-20T11:48:37Z</time>
      </trkpt>
      <trkpt lat="49.14393" lon="2.14457">
        <ele>53</ele>
        <time>2012-05-20T11:48:42Z</time>
      </trkpt>
      <trkpt lat="49.14398" lon="2.14466">
        <ele>52</ele>
        <time>2012-05-20T11:48:51Z</time>
      </trkpt>
      <trkpt lat="49.14411" lon="2.14476">
        <ele>52</ele>
        <time>2012-05-20T11:49:01Z</time>
      </trkpt>
      <trkpt lat="49.14431" lon="2.14491">
        <ele>53</ele>
        <time>2012-05-20T11:49:18Z</time>
      </trkpt>
      <trkpt lat="49.14435" lon="2.14491">
        <ele>53</ele>
        <time>2012-05-20T11:49:21Z</time>
      </trkpt>
      <trkpt lat="49.14438" lon="2.14491">
        <ele>52</ele>
        <time>2012-05-20T11:49:23Z</time>
      </trkpt>
      <trkpt lat="49.14454" lon="2.14498">
        <ele>53</ele>
        <time>2012-05-20T11:49:35Z</time>
      </trkpt>
      <trkpt lat="49.14458" lon="2.14505">
        <ele>55</ele>
        <time>2012-05-20T11:49:40Z</time>
      </trkpt>
      <trkpt lat="49.14459" lon="2.14505">
        <ele>54</ele>
        <time>2012-05-20T11:49:41Z</time>
      </trkpt>
      <trkpt lat="49.14472" lon="2.14519">
        <ele>54</ele>
        <time>2012-05-20T11:49:55Z</time>
      </trkpt>
      <trkpt lat="49.14476" lon="2.14523">
        <ele>55</ele>
        <time>2012-05-20T11:49:59Z</time>
      </trkpt>
      <trkpt lat="49.1449" lon="2.14526">
        <ele>57</ele>
        <time>2012-05-20T11:50:11Z</time>
      </trkpt>
      <trkpt lat="49.14511" lon="2.14534">
        <ele>59</ele>
        <time>2012-05-20T11:50:25Z</time>
      </trkpt>
      <trkpt lat="49.14514" lon="2.14533">
        <ele>59</ele>
        <time>2012-05-20T11:50:26Z</time>
      </trkpt>
      <trkpt lat="49.14528" lon="2.14535">
        <ele>61</ele>
        <time>2012-05-20T11:50:38Z</time>
      </trkpt>
      <trkpt lat="49.14539" lon="2.14531">
        <ele>63</ele>
        <time>2012-05-20T11:50:46Z</time>
      </trkpt>
      <trkpt lat="49.14541" lon="2.1453">
        <ele>63</ele>
        <time>2012-05-20T11:50:48Z</time>
      </trkpt>
      <trkpt lat="49.14545" lon="2.1453">
        <ele>62</ele>
        <time>2012-05-20T11:50:51Z</time>
      </trkpt>
      <trkpt lat="49.14564" lon="2.14524">
        <ele>65</ele>
        <time>2012-05-20T11:51:06Z</time>
      </trkpt>
      <trkpt lat="49.14566" lon="2.14523">
        <ele>66</ele>
        <time>2012-05-20T11:51:08Z</time>
      </trkpt>
      <trkpt lat="49.1457" lon="2.14523">
        <ele>66</ele>
        <time>2012-05-20T11:51:11Z</time>
      </trkpt>
      <trkpt lat="49.14579" lon="2.14519">
        <ele>66</ele>
        <time>2012-05-20T11:51:19Z</time>
      </trkpt>
      <trkpt lat="49.14585" lon="2.14518">
        <ele>67</ele>
        <time>2012-05-20T11:51:23Z</time>
      </trkpt>
      <trkpt lat="49.14588" lon="2.14518">
        <ele>67</ele>
        <time>2012-05-20T11:51:26Z</time>
      </trkpt>
      <trkpt lat="49.14591" lon="2.14517">
        <ele>67</ele>
        <time>2012-05-20T11:51:28Z</time>
      </trkpt>
      <trkpt lat="49.14597" lon="2.14512">
        <ele>69</ele>
        <time>2012-05-20T11:51:46Z</time>
      </trkpt>
      <trkpt lat="49.146" lon="2.14514">
        <ele>69</ele>
        <time>2012-05-20T11:52:07Z</time>
      </trkpt>
      <trkpt lat="49.14617" lon="2.14509">
        <ele>70</ele>
        <time>2012-05-20T11:52:28Z</time>
      </trkpt>
      <trkpt lat="49.14621" lon="2.14511">
        <ele>70</ele>
        <time>2012-05-20T11:52:50Z</time>
      </trkpt>
      <trkpt lat="49.14645" lon="2.14511">
        <ele>70</ele>
        <time>2012-05-20T11:54:03Z</time>
      </trkpt>
      <trkpt lat="49.14664" lon="2.14522">
        <ele>68</ele>
        <time>2012-05-20T11:54:26Z</time>
      </trkpt>
      <trkpt lat="49.14676" lon="2.14532">
        <ele>66</ele>
        <time>2012-05-20T11:54:40Z</time>
      </trkpt>
      <trkpt lat="49.14689" lon="2.14539">
        <ele>65</ele>
        <time>2012-05-20T11:54:54Z</time>
      </trkpt>
      <trkpt lat="49.14702" lon="2.14545">
        <ele>62</ele>
        <time>2012-05-20T11:55:12Z</time>
      </trkpt>
      <trkpt lat="49.14716" lon="2.14537">
        <ele>60</ele>
        <time>2012-05-20T11:55:34Z</time>
      </trkpt>
      <trkpt lat="49.14737" lon="2.14532">
        <ele>59</ele>
        <time>2012-05-20T11:56:21Z</time>
      </trkpt>
      <trkpt lat="49.14751" lon="2.14525">
        <ele>58</ele>
        <time>2012-05-20T11:56:33Z</time>
      </trkpt>
      <trkpt lat="49.14774" lon="2.14522">
        <ele>58</ele>
        <time>2012-05-20T11:56:53Z</time>
      </trkpt>
      <trkpt lat="49.1479" lon="2.14507">
        <ele>57</ele>
        <time>2012-05-20T11:57:07Z</time>
      </trkpt>
      <trkpt lat="49.14804" lon="2.14501">
        <ele>58</ele>
        <time>2012-05-20T11:57:18Z</time>
      </trkpt>
      <trkpt lat="49.14807" lon="2.14503">
        <ele>57</ele>
        <time>2012-05-20T11:57:20Z</time>
      </trkpt>
      <trkpt lat="49.14816" lon="2.14515">
        <ele>55</ele>
        <time>2012-05-20T11:57:31Z</time>
      </trkpt>
      <trkpt lat="49.14821" lon="2.14538">
        <ele>53</ele>
        <time>2012-05-20T11:57:43Z</time>
      </trkpt>
      <trkpt lat="49.14824" lon="2.14575">
        <ele>49</ele>
        <time>2012-05-20T11:58:07Z</time>
      </trkpt>
      <trkpt lat="49.14839" lon="2.14604">
        <ele>48</ele>
        <time>2012-05-20T11:58:25Z</time>
      </trkpt>
      <trkpt lat="49.14844" lon="2.14633">
        <ele>46</ele>
        <time>2012-05-20T11:58:42Z</time>
      </trkpt>
    </trkseg>
  </trk>
</gpx>